<?xml version="1.0" encoding="UTF-8" standalone="no" ?>
<gpx xmlns="http://www.topografix.com/GPX/1/1" xmlns:xsi="http://www.w3.org/2001/XMLSchema-instance" xsi:schemaLocation="http://www.topografix.com/GPX/1/1 http://www.topografix.com/GPX/1/1/gpx.xsd" version="1.1" creator="VisuGPX - https://www.visugpx.com">
  <metadata>
    <name>autour de cesson</name>
  </metadata>
  <trk>
    <name><![CDATA[Tracé actuel: 15 SEP 2019 14:25]]></name>
    <trkseg>
      <trkpt lat="48.57348" lon="2.61205">
        <ele>83.29</ele>
        <time>2019-09-15T12:25:40Z</time>
      </trkpt>
      <trkpt lat="48.5735" lon="2.61203">
        <ele>92.42</ele>
        <time>2019-09-15T12:25:52Z</time>
      </trkpt>
      <trkpt lat="48.57354" lon="2.61215">
        <ele>90.5</ele>
        <time>2019-09-15T12:26:06Z</time>
      </trkpt>
      <trkpt lat="48.57355" lon="2.61215">
        <ele>90.5</ele>
        <time>2019-09-15T12:26:07Z</time>
      </trkpt>
      <trkpt lat="48.57353" lon="2.61207">
        <ele>91.46</ele>
        <time>2019-09-15T12:26:12Z</time>
      </trkpt>
      <trkpt lat="48.57351" lon="2.61182">
        <ele>89.06</ele>
        <time>2019-09-15T12:26:21Z</time>
      </trkpt>
      <trkpt lat="48.5734" lon="2.61178">
        <ele>87.62</ele>
        <time>2019-09-15T12:26:26Z</time>
      </trkpt>
      <trkpt lat="48.57341" lon="2.61163">
        <ele>88.1</ele>
        <time>2019-09-15T12:26:32Z</time>
      </trkpt>
      <trkpt lat="48.57354" lon="2.61112">
        <ele>87.14</ele>
        <time>2019-09-15T12:26:44Z</time>
      </trkpt>
      <trkpt lat="48.57363" lon="2.61064">
        <ele>84.25</ele>
        <time>2019-09-15T12:26:56Z</time>
      </trkpt>
      <trkpt lat="48.57369" lon="2.61029">
        <ele>83.29</ele>
        <time>2019-09-15T12:27:04Z</time>
      </trkpt>
      <trkpt lat="48.5735" lon="2.61012">
        <ele>82.81</ele>
        <time>2019-09-15T12:27:11Z</time>
      </trkpt>
      <trkpt lat="48.57346" lon="2.60994">
        <ele>82.81</ele>
        <time>2019-09-15T12:27:16Z</time>
      </trkpt>
      <trkpt lat="48.5735" lon="2.60969">
        <ele>81.37</ele>
        <time>2019-09-15T12:27:22Z</time>
      </trkpt>
      <trkpt lat="48.57337" lon="2.60953">
        <ele>79.93</ele>
        <time>2019-09-15T12:27:27Z</time>
      </trkpt>
      <trkpt lat="48.57294" lon="2.60941">
        <ele>78.48</ele>
        <time>2019-09-15T12:27:38Z</time>
      </trkpt>
      <trkpt lat="48.57236" lon="2.60918">
        <ele>80.89</ele>
        <time>2019-09-15T12:27:51Z</time>
      </trkpt>
      <trkpt lat="48.57222" lon="2.60912">
        <ele>81.85</ele>
        <time>2019-09-15T12:27:54Z</time>
      </trkpt>
      <trkpt lat="48.572" lon="2.60902">
        <ele>83.29</ele>
        <time>2019-09-15T12:27:59Z</time>
      </trkpt>
      <trkpt lat="48.57183" lon="2.60897">
        <ele>84.25</ele>
        <time>2019-09-15T12:28:03Z</time>
      </trkpt>
      <trkpt lat="48.57169" lon="2.60896">
        <ele>84.25</ele>
        <time>2019-09-15T12:28:06Z</time>
      </trkpt>
      <trkpt lat="48.5716" lon="2.60896">
        <ele>83.77</ele>
        <time>2019-09-15T12:28:08Z</time>
      </trkpt>
      <trkpt lat="48.57151" lon="2.60896">
        <ele>83.77</ele>
        <time>2019-09-15T12:28:10Z</time>
      </trkpt>
      <trkpt lat="48.57118" lon="2.60878">
        <ele>84.25</ele>
        <time>2019-09-15T12:28:19Z</time>
      </trkpt>
      <trkpt lat="48.57106" lon="2.60891">
        <ele>84.73</ele>
        <time>2019-09-15T12:28:23Z</time>
      </trkpt>
      <trkpt lat="48.57092" lon="2.60895">
        <ele>85.21</ele>
        <time>2019-09-15T12:28:26Z</time>
      </trkpt>
      <trkpt lat="48.57009" lon="2.60899">
        <ele>85.21</ele>
        <time>2019-09-15T12:28:42Z</time>
      </trkpt>
      <trkpt lat="48.56995" lon="2.60906">
        <ele>84.73</ele>
        <time>2019-09-15T12:28:45Z</time>
      </trkpt>
      <trkpt lat="48.5698" lon="2.60898">
        <ele>84.25</ele>
        <time>2019-09-15T12:28:49Z</time>
      </trkpt>
      <trkpt lat="48.56971" lon="2.60853">
        <ele>81.85</ele>
        <time>2019-09-15T12:28:55Z</time>
      </trkpt>
      <trkpt lat="48.56971" lon="2.60838">
        <ele>81.85</ele>
        <time>2019-09-15T12:28:57Z</time>
      </trkpt>
      <trkpt lat="48.56955" lon="2.60753">
        <ele>81.37</ele>
        <time>2019-09-15T12:29:09Z</time>
      </trkpt>
      <trkpt lat="48.56948" lon="2.60718">
        <ele>81.37</ele>
        <time>2019-09-15T12:29:14Z</time>
      </trkpt>
      <trkpt lat="48.56956" lon="2.60639">
        <ele>80.89</ele>
        <time>2019-09-15T12:29:25Z</time>
      </trkpt>
      <trkpt lat="48.56973" lon="2.60552">
        <ele>80.41</ele>
        <time>2019-09-15T12:29:38Z</time>
      </trkpt>
      <trkpt lat="48.56984" lon="2.60481">
        <ele>79.93</ele>
        <time>2019-09-15T12:29:48Z</time>
      </trkpt>
      <trkpt lat="48.5701" lon="2.60367">
        <ele>79.45</ele>
        <time>2019-09-15T12:30:03Z</time>
      </trkpt>
      <trkpt lat="48.57035" lon="2.60256">
        <ele>78</ele>
        <time>2019-09-15T12:30:17Z</time>
      </trkpt>
      <trkpt lat="48.57065" lon="2.60133">
        <ele>77.04</ele>
        <time>2019-09-15T12:30:33Z</time>
      </trkpt>
      <trkpt lat="48.57089" lon="2.60034">
        <ele>77.04</ele>
        <time>2019-09-15T12:30:46Z</time>
      </trkpt>
      <trkpt lat="48.57096" lon="2.60019">
        <ele>78</ele>
        <time>2019-09-15T12:30:49Z</time>
      </trkpt>
      <trkpt lat="48.57082" lon="2.59996">
        <ele>78.48</ele>
        <time>2019-09-15T12:30:55Z</time>
      </trkpt>
      <trkpt lat="48.57056" lon="2.59976">
        <ele>78.48</ele>
        <time>2019-09-15T12:31:02Z</time>
      </trkpt>
      <trkpt lat="48.57029" lon="2.59968">
        <ele>77.52</ele>
        <time>2019-09-15T12:31:08Z</time>
      </trkpt>
      <trkpt lat="48.5701" lon="2.59955">
        <ele>77.04</ele>
        <time>2019-09-15T12:31:13Z</time>
      </trkpt>
      <trkpt lat="48.56969" lon="2.59944">
        <ele>75.12</ele>
        <time>2019-09-15T12:31:24Z</time>
      </trkpt>
      <trkpt lat="48.56975" lon="2.59922">
        <ele>73.68</ele>
        <time>2019-09-15T12:31:31Z</time>
      </trkpt>
      <trkpt lat="48.56989" lon="2.59911">
        <ele>72.72</ele>
        <time>2019-09-15T12:31:36Z</time>
      </trkpt>
      <trkpt lat="48.57012" lon="2.5991">
        <ele>72.24</ele>
        <time>2019-09-15T12:31:41Z</time>
      </trkpt>
      <trkpt lat="48.57038" lon="2.599">
        <ele>71.76</ele>
        <time>2019-09-15T12:31:47Z</time>
      </trkpt>
      <trkpt lat="48.57042" lon="2.59861">
        <ele>72.24</ele>
        <time>2019-09-15T12:31:52Z</time>
      </trkpt>
      <trkpt lat="48.57057" lon="2.59776">
        <ele>72.24</ele>
        <time>2019-09-15T12:32:04Z</time>
      </trkpt>
      <trkpt lat="48.5706" lon="2.59762">
        <ele>72.24</ele>
        <time>2019-09-15T12:32:06Z</time>
      </trkpt>
      <trkpt lat="48.57063" lon="2.5974">
        <ele>71.76</ele>
        <time>2019-09-15T12:32:09Z</time>
      </trkpt>
      <trkpt lat="48.57076" lon="2.5967">
        <ele>72.72</ele>
        <time>2019-09-15T12:32:21Z</time>
      </trkpt>
      <trkpt lat="48.57083" lon="2.59652">
        <ele>74.16</ele>
        <time>2019-09-15T12:32:26Z</time>
      </trkpt>
      <trkpt lat="48.57086" lon="2.5964">
        <ele>74.64</ele>
        <time>2019-09-15T12:32:28Z</time>
      </trkpt>
      <trkpt lat="48.57089" lon="2.59614">
        <ele>74.64</ele>
        <time>2019-09-15T12:32:32Z</time>
      </trkpt>
      <trkpt lat="48.57079" lon="2.59584">
        <ele>75.12</ele>
        <time>2019-09-15T12:32:38Z</time>
      </trkpt>
      <trkpt lat="48.57004" lon="2.5955">
        <ele>73.68</ele>
        <time>2019-09-15T12:32:50Z</time>
      </trkpt>
      <trkpt lat="48.56966" lon="2.59534">
        <ele>73.2</ele>
        <time>2019-09-15T12:32:56Z</time>
      </trkpt>
      <trkpt lat="48.56944" lon="2.59538">
        <ele>72.24</ele>
        <time>2019-09-15T12:33:00Z</time>
      </trkpt>
      <trkpt lat="48.56932" lon="2.59547">
        <ele>71.76</ele>
        <time>2019-09-15T12:33:02Z</time>
      </trkpt>
      <trkpt lat="48.56898" lon="2.59587">
        <ele>69.35</ele>
        <time>2019-09-15T12:33:08Z</time>
      </trkpt>
      <trkpt lat="48.56878" lon="2.59636">
        <ele>67.91</ele>
        <time>2019-09-15T12:33:14Z</time>
      </trkpt>
      <trkpt lat="48.56862" lon="2.59637">
        <ele>66.95</ele>
        <time>2019-09-15T12:33:21Z</time>
      </trkpt>
      <trkpt lat="48.56831" lon="2.59625">
        <ele>66.47</ele>
        <time>2019-09-15T12:33:32Z</time>
      </trkpt>
      <trkpt lat="48.56809" lon="2.59607">
        <ele>66.47</ele>
        <time>2019-09-15T12:33:41Z</time>
      </trkpt>
      <trkpt lat="48.56771" lon="2.59573">
        <ele>69.35</ele>
        <time>2019-09-15T12:33:53Z</time>
      </trkpt>
      <trkpt lat="48.56728" lon="2.59541">
        <ele>72.24</ele>
        <time>2019-09-15T12:34:06Z</time>
      </trkpt>
      <trkpt lat="48.56691" lon="2.59506">
        <ele>73.2</ele>
        <time>2019-09-15T12:34:17Z</time>
      </trkpt>
      <trkpt lat="48.56708" lon="2.59453">
        <ele>71.76</ele>
        <time>2019-09-15T12:34:25Z</time>
      </trkpt>
      <trkpt lat="48.56709" lon="2.59419">
        <ele>70.31</ele>
        <time>2019-09-15T12:34:29Z</time>
      </trkpt>
      <trkpt lat="48.567" lon="2.5934">
        <ele>68.87</ele>
        <time>2019-09-15T12:34:38Z</time>
      </trkpt>
      <trkpt lat="48.56717" lon="2.59291">
        <ele>68.39</ele>
        <time>2019-09-15T12:34:45Z</time>
      </trkpt>
      <trkpt lat="48.56749" lon="2.59259">
        <ele>68.39</ele>
        <time>2019-09-15T12:34:52Z</time>
      </trkpt>
      <trkpt lat="48.56809" lon="2.59225">
        <ele>67.91</ele>
        <time>2019-09-15T12:35:03Z</time>
      </trkpt>
      <trkpt lat="48.56854" lon="2.59147">
        <ele>66.47</ele>
        <time>2019-09-15T12:35:16Z</time>
      </trkpt>
      <trkpt lat="48.56901" lon="2.59057">
        <ele>69.35</ele>
        <time>2019-09-15T12:35:31Z</time>
      </trkpt>
      <trkpt lat="48.56922" lon="2.59017">
        <ele>68.87</ele>
        <time>2019-09-15T12:35:38Z</time>
      </trkpt>
      <trkpt lat="48.56941" lon="2.58983">
        <ele>68.87</ele>
        <time>2019-09-15T12:35:44Z</time>
      </trkpt>
      <trkpt lat="48.56977" lon="2.58909">
        <ele>66.95</ele>
        <time>2019-09-15T12:35:56Z</time>
      </trkpt>
      <trkpt lat="48.57001" lon="2.58872">
        <ele>65.51</ele>
        <time>2019-09-15T12:36:03Z</time>
      </trkpt>
      <trkpt lat="48.57029" lon="2.58851">
        <ele>65.99</ele>
        <time>2019-09-15T12:36:11Z</time>
      </trkpt>
      <trkpt lat="48.57043" lon="2.58817">
        <ele>66.95</ele>
        <time>2019-09-15T12:36:20Z</time>
      </trkpt>
      <trkpt lat="48.57052" lon="2.58788">
        <ele>67.43</ele>
        <time>2019-09-15T12:36:25Z</time>
      </trkpt>
      <trkpt lat="48.57054" lon="2.58751">
        <ele>66.95</ele>
        <time>2019-09-15T12:36:30Z</time>
      </trkpt>
      <trkpt lat="48.57067" lon="2.58719">
        <ele>65.99</ele>
        <time>2019-09-15T12:36:34Z</time>
      </trkpt>
      <trkpt lat="48.57081" lon="2.5869">
        <ele>65.99</ele>
        <time>2019-09-15T12:36:38Z</time>
      </trkpt>
      <trkpt lat="48.5709" lon="2.58662">
        <ele>66.47</ele>
        <time>2019-09-15T12:36:42Z</time>
      </trkpt>
      <trkpt lat="48.57113" lon="2.58635">
        <ele>67.91</ele>
        <time>2019-09-15T12:36:48Z</time>
      </trkpt>
      <trkpt lat="48.5713" lon="2.58629">
        <ele>70.31</ele>
        <time>2019-09-15T12:36:52Z</time>
      </trkpt>
      <trkpt lat="48.57148" lon="2.58618">
        <ele>72.24</ele>
        <time>2019-09-15T12:36:56Z</time>
      </trkpt>
      <trkpt lat="48.57161" lon="2.58606">
        <ele>72.72</ele>
        <time>2019-09-15T12:36:59Z</time>
      </trkpt>
      <trkpt lat="48.57181" lon="2.58584">
        <ele>73.68</ele>
        <time>2019-09-15T12:37:04Z</time>
      </trkpt>
      <trkpt lat="48.57193" lon="2.58571">
        <ele>74.16</ele>
        <time>2019-09-15T12:37:07Z</time>
      </trkpt>
      <trkpt lat="48.57222" lon="2.58534">
        <ele>74.16</ele>
        <time>2019-09-15T12:37:15Z</time>
      </trkpt>
      <trkpt lat="48.57244" lon="2.58506">
        <ele>73.68</ele>
        <time>2019-09-15T12:37:21Z</time>
      </trkpt>
      <trkpt lat="48.57258" lon="2.5848">
        <ele>72.24</ele>
        <time>2019-09-15T12:37:26Z</time>
      </trkpt>
      <trkpt lat="48.57271" lon="2.5846">
        <ele>72.24</ele>
        <time>2019-09-15T12:37:30Z</time>
      </trkpt>
      <trkpt lat="48.57288" lon="2.58446">
        <ele>71.76</ele>
        <time>2019-09-15T12:37:34Z</time>
      </trkpt>
      <trkpt lat="48.57304" lon="2.58432">
        <ele>72.24</ele>
        <time>2019-09-15T12:37:38Z</time>
      </trkpt>
      <trkpt lat="48.57312" lon="2.58424">
        <ele>72.72</ele>
        <time>2019-09-15T12:37:40Z</time>
      </trkpt>
      <trkpt lat="48.5733" lon="2.58397">
        <ele>72.24</ele>
        <time>2019-09-15T12:37:45Z</time>
      </trkpt>
      <trkpt lat="48.5734" lon="2.58369">
        <ele>71.27</ele>
        <time>2019-09-15T12:37:49Z</time>
      </trkpt>
      <trkpt lat="48.57346" lon="2.5834">
        <ele>70.31</ele>
        <time>2019-09-15T12:37:54Z</time>
      </trkpt>
      <trkpt lat="48.57387" lon="2.58333">
        <ele>68.39</ele>
        <time>2019-09-15T12:38:03Z</time>
      </trkpt>
      <trkpt lat="48.57402" lon="2.58332">
        <ele>67.91</ele>
        <time>2019-09-15T12:38:06Z</time>
      </trkpt>
      <trkpt lat="48.57423" lon="2.58335">
        <ele>67.43</ele>
        <time>2019-09-15T12:38:10Z</time>
      </trkpt>
      <trkpt lat="48.57432" lon="2.58338">
        <ele>66.95</ele>
        <time>2019-09-15T12:38:12Z</time>
      </trkpt>
      <trkpt lat="48.57445" lon="2.58335">
        <ele>66.47</ele>
        <time>2019-09-15T12:38:16Z</time>
      </trkpt>
      <trkpt lat="48.57451" lon="2.58316">
        <ele>65.99</ele>
        <time>2019-09-15T12:38:20Z</time>
      </trkpt>
      <trkpt lat="48.57453" lon="2.58302">
        <ele>65.99</ele>
        <time>2019-09-15T12:38:22Z</time>
      </trkpt>
      <trkpt lat="48.57457" lon="2.58256">
        <ele>64.07</ele>
        <time>2019-09-15T12:38:29Z</time>
      </trkpt>
      <trkpt lat="48.57457" lon="2.58234">
        <ele>62.62</ele>
        <time>2019-09-15T12:38:32Z</time>
      </trkpt>
      <trkpt lat="48.5745" lon="2.58191">
        <ele>61.18</ele>
        <time>2019-09-15T12:38:38Z</time>
      </trkpt>
      <trkpt lat="48.57448" lon="2.58162">
        <ele>60.22</ele>
        <time>2019-09-15T12:38:42Z</time>
      </trkpt>
      <trkpt lat="48.57434" lon="2.5811">
        <ele>59.26</ele>
        <time>2019-09-15T12:38:52Z</time>
      </trkpt>
      <trkpt lat="48.57431" lon="2.58108">
        <ele>58.78</ele>
        <time>2019-09-15T12:38:53Z</time>
      </trkpt>
      <trkpt lat="48.57426" lon="2.58106">
        <ele>58.3</ele>
        <time>2019-09-15T12:38:55Z</time>
      </trkpt>
      <trkpt lat="48.5743" lon="2.58083">
        <ele>58.3</ele>
        <time>2019-09-15T12:39:01Z</time>
      </trkpt>
      <trkpt lat="48.57439" lon="2.58026">
        <ele>61.66</ele>
        <time>2019-09-15T12:39:11Z</time>
      </trkpt>
      <trkpt lat="48.5744" lon="2.58001">
        <ele>62.62</ele>
        <time>2019-09-15T12:39:15Z</time>
      </trkpt>
      <trkpt lat="48.57446" lon="2.5797">
        <ele>63.58</ele>
        <time>2019-09-15T12:39:20Z</time>
      </trkpt>
      <trkpt lat="48.57454" lon="2.57949">
        <ele>65.03</ele>
        <time>2019-09-15T12:39:24Z</time>
      </trkpt>
      <trkpt lat="48.57469" lon="2.57952">
        <ele>66.95</ele>
        <time>2019-09-15T12:39:28Z</time>
      </trkpt>
      <trkpt lat="48.57512" lon="2.57951">
        <ele>70.79</ele>
        <time>2019-09-15T12:39:37Z</time>
      </trkpt>
      <trkpt lat="48.5752" lon="2.57921">
        <ele>73.68</ele>
        <time>2019-09-15T12:39:44Z</time>
      </trkpt>
      <trkpt lat="48.57513" lon="2.57906">
        <ele>73.68</ele>
        <time>2019-09-15T12:39:46Z</time>
      </trkpt>
      <trkpt lat="48.57487" lon="2.57853">
        <ele>74.16</ele>
        <time>2019-09-15T12:39:53Z</time>
      </trkpt>
      <trkpt lat="48.57478" lon="2.578">
        <ele>75.6</ele>
        <time>2019-09-15T12:39:59Z</time>
      </trkpt>
      <trkpt lat="48.57481" lon="2.57756">
        <ele>74.64</ele>
        <time>2019-09-15T12:40:04Z</time>
      </trkpt>
      <trkpt lat="48.57503" lon="2.57675">
        <ele>75.12</ele>
        <time>2019-09-15T12:40:16Z</time>
      </trkpt>
      <trkpt lat="48.57507" lon="2.57662">
        <ele>75.12</ele>
        <time>2019-09-15T12:40:18Z</time>
      </trkpt>
      <trkpt lat="48.57512" lon="2.57637">
        <ele>75.12</ele>
        <time>2019-09-15T12:40:22Z</time>
      </trkpt>
      <trkpt lat="48.57523" lon="2.57598">
        <ele>75.12</ele>
        <time>2019-09-15T12:40:29Z</time>
      </trkpt>
      <trkpt lat="48.57515" lon="2.57568">
        <ele>75.12</ele>
        <time>2019-09-15T12:40:34Z</time>
      </trkpt>
      <trkpt lat="48.57529" lon="2.57496">
        <ele>76.08</ele>
        <time>2019-09-15T12:40:45Z</time>
      </trkpt>
      <trkpt lat="48.5753" lon="2.57489">
        <ele>76.08</ele>
        <time>2019-09-15T12:40:46Z</time>
      </trkpt>
      <trkpt lat="48.57531" lon="2.5746">
        <ele>75.6</ele>
        <time>2019-09-15T12:40:50Z</time>
      </trkpt>
      <trkpt lat="48.57533" lon="2.57443">
        <ele>75.6</ele>
        <time>2019-09-15T12:40:52Z</time>
      </trkpt>
      <trkpt lat="48.57545" lon="2.57405">
        <ele>75.6</ele>
        <time>2019-09-15T12:40:58Z</time>
      </trkpt>
      <trkpt lat="48.57576" lon="2.57354">
        <ele>76.08</ele>
        <time>2019-09-15T12:41:07Z</time>
      </trkpt>
      <trkpt lat="48.57601" lon="2.57314">
        <ele>76.08</ele>
        <time>2019-09-15T12:41:15Z</time>
      </trkpt>
      <trkpt lat="48.57607" lon="2.57303">
        <ele>76.08</ele>
        <time>2019-09-15T12:41:17Z</time>
      </trkpt>
      <trkpt lat="48.57617" lon="2.57287">
        <ele>76.08</ele>
        <time>2019-09-15T12:41:20Z</time>
      </trkpt>
      <trkpt lat="48.57654" lon="2.57224">
        <ele>75.6</ele>
        <time>2019-09-15T12:41:31Z</time>
      </trkpt>
      <trkpt lat="48.57681" lon="2.57179">
        <ele>76.08</ele>
        <time>2019-09-15T12:41:39Z</time>
      </trkpt>
      <trkpt lat="48.57693" lon="2.57163">
        <ele>76.56</ele>
        <time>2019-09-15T12:41:42Z</time>
      </trkpt>
      <trkpt lat="48.57725" lon="2.57143">
        <ele>76.56</ele>
        <time>2019-09-15T12:41:49Z</time>
      </trkpt>
      <trkpt lat="48.57768" lon="2.57116">
        <ele>75.12</ele>
        <time>2019-09-15T12:41:58Z</time>
      </trkpt>
      <trkpt lat="48.57781" lon="2.57079">
        <ele>74.16</ele>
        <time>2019-09-15T12:42:06Z</time>
      </trkpt>
      <trkpt lat="48.57778" lon="2.57071">
        <ele>74.16</ele>
        <time>2019-09-15T12:42:07Z</time>
      </trkpt>
      <trkpt lat="48.57746" lon="2.56989">
        <ele>75.12</ele>
        <time>2019-09-15T12:42:20Z</time>
      </trkpt>
      <trkpt lat="48.57747" lon="2.56965">
        <ele>75.6</ele>
        <time>2019-09-15T12:42:24Z</time>
      </trkpt>
      <trkpt lat="48.57765" lon="2.56941">
        <ele>76.08</ele>
        <time>2019-09-15T12:42:29Z</time>
      </trkpt>
      <trkpt lat="48.5778" lon="2.56922">
        <ele>76.08</ele>
        <time>2019-09-15T12:42:33Z</time>
      </trkpt>
      <trkpt lat="48.57805" lon="2.56888">
        <ele>74.64</ele>
        <time>2019-09-15T12:42:40Z</time>
      </trkpt>
      <trkpt lat="48.57819" lon="2.56861">
        <ele>73.2</ele>
        <time>2019-09-15T12:42:45Z</time>
      </trkpt>
      <trkpt lat="48.5783" lon="2.56837">
        <ele>72.24</ele>
        <time>2019-09-15T12:42:49Z</time>
      </trkpt>
      <trkpt lat="48.57848" lon="2.56801">
        <ele>70.31</ele>
        <time>2019-09-15T12:42:55Z</time>
      </trkpt>
      <trkpt lat="48.57853" lon="2.56788">
        <ele>69.83</ele>
        <time>2019-09-15T12:42:57Z</time>
      </trkpt>
      <trkpt lat="48.57882" lon="2.56737">
        <ele>69.35</ele>
        <time>2019-09-15T12:43:06Z</time>
      </trkpt>
      <trkpt lat="48.57897" lon="2.56706">
        <ele>68.87</ele>
        <time>2019-09-15T12:43:11Z</time>
      </trkpt>
      <trkpt lat="48.57926" lon="2.56652">
        <ele>66.95</ele>
        <time>2019-09-15T12:43:20Z</time>
      </trkpt>
      <trkpt lat="48.57938" lon="2.56627">
        <ele>66.47</ele>
        <time>2019-09-15T12:43:24Z</time>
      </trkpt>
      <trkpt lat="48.57945" lon="2.56616">
        <ele>66.95</ele>
        <time>2019-09-15T12:43:26Z</time>
      </trkpt>
      <trkpt lat="48.57966" lon="2.56574">
        <ele>67.91</ele>
        <time>2019-09-15T12:43:35Z</time>
      </trkpt>
      <trkpt lat="48.57963" lon="2.56543">
        <ele>69.35</ele>
        <time>2019-09-15T12:43:44Z</time>
      </trkpt>
      <trkpt lat="48.57924" lon="2.56501">
        <ele>70.31</ele>
        <time>2019-09-15T12:43:55Z</time>
      </trkpt>
      <trkpt lat="48.579" lon="2.56482">
        <ele>71.27</ele>
        <time>2019-09-15T12:44:01Z</time>
      </trkpt>
      <trkpt lat="48.57877" lon="2.56461">
        <ele>72.24</ele>
        <time>2019-09-15T12:44:07Z</time>
      </trkpt>
      <trkpt lat="48.57831" lon="2.56418">
        <ele>74.64</ele>
        <time>2019-09-15T12:44:19Z</time>
      </trkpt>
      <trkpt lat="48.57805" lon="2.56394">
        <ele>76.56</ele>
        <time>2019-09-15T12:44:30Z</time>
      </trkpt>
      <trkpt lat="48.57803" lon="2.56388">
        <ele>77.04</ele>
        <time>2019-09-15T12:44:45Z</time>
      </trkpt>
      <trkpt lat="48.57801" lon="2.56384">
        <ele>78.48</ele>
        <time>2019-09-15T12:45:07Z</time>
      </trkpt>
      <trkpt lat="48.57771" lon="2.56354">
        <ele>80.41</ele>
        <time>2019-09-15T12:45:17Z</time>
      </trkpt>
      <trkpt lat="48.57744" lon="2.56341">
        <ele>82.33</ele>
        <time>2019-09-15T12:45:23Z</time>
      </trkpt>
      <trkpt lat="48.577" lon="2.56315">
        <ele>84.73</ele>
        <time>2019-09-15T12:45:33Z</time>
      </trkpt>
      <trkpt lat="48.57637" lon="2.56278">
        <ele>84.25</ele>
        <time>2019-09-15T12:45:47Z</time>
      </trkpt>
      <trkpt lat="48.57628" lon="2.56271">
        <ele>84.25</ele>
        <time>2019-09-15T12:45:49Z</time>
      </trkpt>
      <trkpt lat="48.57573" lon="2.56237">
        <ele>83.29</ele>
        <time>2019-09-15T12:46:00Z</time>
      </trkpt>
      <trkpt lat="48.57541" lon="2.56213">
        <ele>82.81</ele>
        <time>2019-09-15T12:46:06Z</time>
      </trkpt>
      <trkpt lat="48.57453" lon="2.56153">
        <ele>80.89</ele>
        <time>2019-09-15T12:46:21Z</time>
      </trkpt>
      <trkpt lat="48.57382" lon="2.56104">
        <ele>80.89</ele>
        <time>2019-09-15T12:46:33Z</time>
      </trkpt>
      <trkpt lat="48.57305" lon="2.56055">
        <ele>80.41</ele>
        <time>2019-09-15T12:46:47Z</time>
      </trkpt>
      <trkpt lat="48.57284" lon="2.56071">
        <ele>79.93</ele>
        <time>2019-09-15T12:46:53Z</time>
      </trkpt>
      <trkpt lat="48.57282" lon="2.56084">
        <ele>79.45</ele>
        <time>2019-09-15T12:46:55Z</time>
      </trkpt>
      <trkpt lat="48.57263" lon="2.56153">
        <ele>78</ele>
        <time>2019-09-15T12:47:05Z</time>
      </trkpt>
      <trkpt lat="48.57251" lon="2.56195">
        <ele>78.48</ele>
        <time>2019-09-15T12:47:11Z</time>
      </trkpt>
      <trkpt lat="48.57243" lon="2.56223">
        <ele>78.48</ele>
        <time>2019-09-15T12:47:15Z</time>
      </trkpt>
      <trkpt lat="48.57236" lon="2.56245">
        <ele>78.48</ele>
        <time>2019-09-15T12:47:18Z</time>
      </trkpt>
      <trkpt lat="48.57228" lon="2.56273">
        <ele>78.48</ele>
        <time>2019-09-15T12:47:22Z</time>
      </trkpt>
      <trkpt lat="48.57224" lon="2.56288">
        <ele>78.48</ele>
        <time>2019-09-15T12:47:24Z</time>
      </trkpt>
      <trkpt lat="48.57218" lon="2.56309">
        <ele>78.48</ele>
        <time>2019-09-15T12:47:27Z</time>
      </trkpt>
      <trkpt lat="48.57208" lon="2.56343">
        <ele>78</ele>
        <time>2019-09-15T12:47:32Z</time>
      </trkpt>
      <trkpt lat="48.57196" lon="2.56365">
        <ele>78.48</ele>
        <time>2019-09-15T12:47:36Z</time>
      </trkpt>
      <trkpt lat="48.57171" lon="2.56371">
        <ele>78.97</ele>
        <time>2019-09-15T12:47:41Z</time>
      </trkpt>
      <trkpt lat="48.57142" lon="2.56374">
        <ele>79.45</ele>
        <time>2019-09-15T12:47:47Z</time>
      </trkpt>
      <trkpt lat="48.57123" lon="2.56375">
        <ele>79.93</ele>
        <time>2019-09-15T12:47:51Z</time>
      </trkpt>
      <trkpt lat="48.57105" lon="2.56377">
        <ele>79.93</ele>
        <time>2019-09-15T12:47:55Z</time>
      </trkpt>
      <trkpt lat="48.57075" lon="2.56378">
        <ele>80.41</ele>
        <time>2019-09-15T12:48:01Z</time>
      </trkpt>
      <trkpt lat="48.5705" lon="2.56379">
        <ele>80.89</ele>
        <time>2019-09-15T12:48:06Z</time>
      </trkpt>
      <trkpt lat="48.57035" lon="2.56379">
        <ele>80.89</ele>
        <time>2019-09-15T12:48:09Z</time>
      </trkpt>
      <trkpt lat="48.57015" lon="2.56378">
        <ele>81.37</ele>
        <time>2019-09-15T12:48:13Z</time>
      </trkpt>
      <trkpt lat="48.56989" lon="2.56378">
        <ele>81.85</ele>
        <time>2019-09-15T12:48:18Z</time>
      </trkpt>
      <trkpt lat="48.56969" lon="2.56375">
        <ele>81.85</ele>
        <time>2019-09-15T12:48:22Z</time>
      </trkpt>
      <trkpt lat="48.56923" lon="2.56367">
        <ele>82.81</ele>
        <time>2019-09-15T12:48:31Z</time>
      </trkpt>
      <trkpt lat="48.56913" lon="2.56368">
        <ele>82.33</ele>
        <time>2019-09-15T12:48:33Z</time>
      </trkpt>
      <trkpt lat="48.56861" lon="2.56408">
        <ele>83.29</ele>
        <time>2019-09-15T12:48:45Z</time>
      </trkpt>
      <trkpt lat="48.56834" lon="2.5643">
        <ele>83.29</ele>
        <time>2019-09-15T12:48:51Z</time>
      </trkpt>
      <trkpt lat="48.56814" lon="2.56439">
        <ele>82.81</ele>
        <time>2019-09-15T12:48:55Z</time>
      </trkpt>
      <trkpt lat="48.56803" lon="2.56443">
        <ele>82.81</ele>
        <time>2019-09-15T12:48:57Z</time>
      </trkpt>
      <trkpt lat="48.56777" lon="2.56452">
        <ele>83.29</ele>
        <time>2019-09-15T12:49:02Z</time>
      </trkpt>
      <trkpt lat="48.5676" lon="2.56458">
        <ele>83.29</ele>
        <time>2019-09-15T12:49:06Z</time>
      </trkpt>
      <trkpt lat="48.56745" lon="2.5644">
        <ele>83.29</ele>
        <time>2019-09-15T12:49:11Z</time>
      </trkpt>
      <trkpt lat="48.56742" lon="2.56416">
        <ele>83.29</ele>
        <time>2019-09-15T12:49:14Z</time>
      </trkpt>
      <trkpt lat="48.56733" lon="2.56377">
        <ele>83.29</ele>
        <time>2019-09-15T12:49:19Z</time>
      </trkpt>
      <trkpt lat="48.56699" lon="2.56271">
        <ele>82.81</ele>
        <time>2019-09-15T12:49:33Z</time>
      </trkpt>
      <trkpt lat="48.56692" lon="2.56247">
        <ele>82.33</ele>
        <time>2019-09-15T12:49:36Z</time>
      </trkpt>
      <trkpt lat="48.56658" lon="2.56134">
        <ele>82.81</ele>
        <time>2019-09-15T12:49:50Z</time>
      </trkpt>
      <trkpt lat="48.5665" lon="2.56112">
        <ele>82.81</ele>
        <time>2019-09-15T12:49:53Z</time>
      </trkpt>
      <trkpt lat="48.5664" lon="2.56073">
        <ele>83.29</ele>
        <time>2019-09-15T12:49:58Z</time>
      </trkpt>
      <trkpt lat="48.5662" lon="2.56054">
        <ele>84.25</ele>
        <time>2019-09-15T12:50:04Z</time>
      </trkpt>
      <trkpt lat="48.5655" lon="2.56078">
        <ele>83.77</ele>
        <time>2019-09-15T12:50:17Z</time>
      </trkpt>
      <trkpt lat="48.56497" lon="2.56107">
        <ele>80.41</ele>
        <time>2019-09-15T12:50:26Z</time>
      </trkpt>
      <trkpt lat="48.56485" lon="2.56109">
        <ele>79.93</ele>
        <time>2019-09-15T12:50:28Z</time>
      </trkpt>
      <trkpt lat="48.56463" lon="2.56116">
        <ele>78</ele>
        <time>2019-09-15T12:50:32Z</time>
      </trkpt>
      <trkpt lat="48.56422" lon="2.56132">
        <ele>74.64</ele>
        <time>2019-09-15T12:50:39Z</time>
      </trkpt>
      <trkpt lat="48.56388" lon="2.56144">
        <ele>71.76</ele>
        <time>2019-09-15T12:50:44Z</time>
      </trkpt>
      <trkpt lat="48.5637" lon="2.56192">
        <ele>68.87</ele>
        <time>2019-09-15T12:50:50Z</time>
      </trkpt>
      <trkpt lat="48.56364" lon="2.56248">
        <ele>67.43</ele>
        <time>2019-09-15T12:50:55Z</time>
      </trkpt>
      <trkpt lat="48.56342" lon="2.56297">
        <ele>65.03</ele>
        <time>2019-09-15T12:51:00Z</time>
      </trkpt>
      <trkpt lat="48.56336" lon="2.5634">
        <ele>62.62</ele>
        <time>2019-09-15T12:51:06Z</time>
      </trkpt>
      <trkpt lat="48.56351" lon="2.56353">
        <ele>60.22</ele>
        <time>2019-09-15T12:51:10Z</time>
      </trkpt>
      <trkpt lat="48.56386" lon="2.56374">
        <ele>57.34</ele>
        <time>2019-09-15T12:51:18Z</time>
      </trkpt>
      <trkpt lat="48.56418" lon="2.56388">
        <ele>55.89</ele>
        <time>2019-09-15T12:51:25Z</time>
      </trkpt>
      <trkpt lat="48.56436" lon="2.56403">
        <ele>54.93</ele>
        <time>2019-09-15T12:51:29Z</time>
      </trkpt>
      <trkpt lat="48.56449" lon="2.56417">
        <ele>54.93</ele>
        <time>2019-09-15T12:51:32Z</time>
      </trkpt>
      <trkpt lat="48.56462" lon="2.56429">
        <ele>54.93</ele>
        <time>2019-09-15T12:51:35Z</time>
      </trkpt>
      <trkpt lat="48.56475" lon="2.56443">
        <ele>55.41</ele>
        <time>2019-09-15T12:51:38Z</time>
      </trkpt>
      <trkpt lat="48.56501" lon="2.56475">
        <ele>56.37</ele>
        <time>2019-09-15T12:51:45Z</time>
      </trkpt>
      <trkpt lat="48.56497" lon="2.56495">
        <ele>56.37</ele>
        <time>2019-09-15T12:51:49Z</time>
      </trkpt>
      <trkpt lat="48.56486" lon="2.56503">
        <ele>56.37</ele>
        <time>2019-09-15T12:51:51Z</time>
      </trkpt>
      <trkpt lat="48.56474" lon="2.56515">
        <ele>55.89</ele>
        <time>2019-09-15T12:51:53Z</time>
      </trkpt>
      <trkpt lat="48.56424" lon="2.56529">
        <ele>52.53</ele>
        <time>2019-09-15T12:51:59Z</time>
      </trkpt>
      <trkpt lat="48.56418" lon="2.56543">
        <ele>51.57</ele>
        <time>2019-09-15T12:52:01Z</time>
      </trkpt>
      <trkpt lat="48.56413" lon="2.56612">
        <ele>47.24</ele>
        <time>2019-09-15T12:52:09Z</time>
      </trkpt>
      <trkpt lat="48.56419" lon="2.56641">
        <ele>45.32</ele>
        <time>2019-09-15T12:52:13Z</time>
      </trkpt>
      <trkpt lat="48.56429" lon="2.56697">
        <ele>43.88</ele>
        <time>2019-09-15T12:52:21Z</time>
      </trkpt>
      <trkpt lat="48.5644" lon="2.56745">
        <ele>45.8</ele>
        <time>2019-09-15T12:52:29Z</time>
      </trkpt>
      <trkpt lat="48.56442" lon="2.5678">
        <ele>49.16</ele>
        <time>2019-09-15T12:52:40Z</time>
      </trkpt>
      <trkpt lat="48.56445" lon="2.56783">
        <ele>53.49</ele>
        <time>2019-09-15T12:52:56Z</time>
      </trkpt>
      <trkpt lat="48.56446" lon="2.56783">
        <ele>54.45</ele>
        <time>2019-09-15T12:53:18Z</time>
      </trkpt>
      <trkpt lat="48.56441" lon="2.56818">
        <ele>55.89</ele>
        <time>2019-09-15T12:53:29Z</time>
      </trkpt>
      <trkpt lat="48.56431" lon="2.56879">
        <ele>58.78</ele>
        <time>2019-09-15T12:53:40Z</time>
      </trkpt>
      <trkpt lat="48.56422" lon="2.56924">
        <ele>60.22</ele>
        <time>2019-09-15T12:53:48Z</time>
      </trkpt>
      <trkpt lat="48.56419" lon="2.56945">
        <ele>60.7</ele>
        <time>2019-09-15T12:53:51Z</time>
      </trkpt>
      <trkpt lat="48.56417" lon="2.5699">
        <ele>60.7</ele>
        <time>2019-09-15T12:53:57Z</time>
      </trkpt>
      <trkpt lat="48.56414" lon="2.57064">
        <ele>58.78</ele>
        <time>2019-09-15T12:54:08Z</time>
      </trkpt>
      <trkpt lat="48.56411" lon="2.571">
        <ele>59.26</ele>
        <time>2019-09-15T12:54:13Z</time>
      </trkpt>
      <trkpt lat="48.56409" lon="2.57135">
        <ele>59.74</ele>
        <time>2019-09-15T12:54:18Z</time>
      </trkpt>
      <trkpt lat="48.56408" lon="2.57149">
        <ele>59.74</ele>
        <time>2019-09-15T12:54:20Z</time>
      </trkpt>
      <trkpt lat="48.56407" lon="2.57184">
        <ele>59.74</ele>
        <time>2019-09-15T12:54:25Z</time>
      </trkpt>
      <trkpt lat="48.564" lon="2.5723">
        <ele>60.7</ele>
        <time>2019-09-15T12:54:34Z</time>
      </trkpt>
      <trkpt lat="48.5642" lon="2.57239">
        <ele>61.66</ele>
        <time>2019-09-15T12:54:46Z</time>
      </trkpt>
      <trkpt lat="48.5645" lon="2.5724">
        <ele>64.07</ele>
        <time>2019-09-15T12:55:00Z</time>
      </trkpt>
      <trkpt lat="48.56488" lon="2.57239">
        <ele>68.87</ele>
        <time>2019-09-15T12:55:17Z</time>
      </trkpt>
      <trkpt lat="48.56523" lon="2.57242">
        <ele>71.76</ele>
        <time>2019-09-15T12:55:31Z</time>
      </trkpt>
      <trkpt lat="48.56555" lon="2.57244">
        <ele>74.16</ele>
        <time>2019-09-15T12:55:45Z</time>
      </trkpt>
      <trkpt lat="48.56588" lon="2.57248">
        <ele>77.52</ele>
        <time>2019-09-15T12:55:59Z</time>
      </trkpt>
      <trkpt lat="48.56626" lon="2.57252">
        <ele>81.37</ele>
        <time>2019-09-15T12:56:15Z</time>
      </trkpt>
      <trkpt lat="48.56657" lon="2.57256">
        <ele>81.85</ele>
        <time>2019-09-15T12:56:26Z</time>
      </trkpt>
      <trkpt lat="48.56697" lon="2.57259">
        <ele>81.85</ele>
        <time>2019-09-15T12:56:39Z</time>
      </trkpt>
      <trkpt lat="48.56747" lon="2.57257">
        <ele>84.73</ele>
        <time>2019-09-15T12:56:54Z</time>
      </trkpt>
      <trkpt lat="48.56789" lon="2.57257">
        <ele>86.66</ele>
        <time>2019-09-15T12:57:06Z</time>
      </trkpt>
      <trkpt lat="48.56842" lon="2.57255">
        <ele>86.66</ele>
        <time>2019-09-15T12:57:21Z</time>
      </trkpt>
      <trkpt lat="48.56882" lon="2.57255">
        <ele>86.18</ele>
        <time>2019-09-15T12:57:33Z</time>
      </trkpt>
      <trkpt lat="48.56936" lon="2.57254">
        <ele>88.1</ele>
        <time>2019-09-15T12:57:48Z</time>
      </trkpt>
      <trkpt lat="48.56976" lon="2.57254">
        <ele>88.58</ele>
        <time>2019-09-15T12:57:59Z</time>
      </trkpt>
      <trkpt lat="48.56979" lon="2.57254">
        <ele>88.58</ele>
        <time>2019-09-15T12:58:00Z</time>
      </trkpt>
      <trkpt lat="48.56991" lon="2.57273">
        <ele>87.14</ele>
        <time>2019-09-15T12:58:05Z</time>
      </trkpt>
      <trkpt lat="48.5702" lon="2.57381">
        <ele>85.21</ele>
        <time>2019-09-15T12:58:21Z</time>
      </trkpt>
      <trkpt lat="48.57023" lon="2.57388">
        <ele>85.21</ele>
        <time>2019-09-15T12:58:22Z</time>
      </trkpt>
      <trkpt lat="48.57055" lon="2.57494">
        <ele>83.77</ele>
        <time>2019-09-15T12:58:36Z</time>
      </trkpt>
      <trkpt lat="48.57088" lon="2.57622">
        <ele>81.85</ele>
        <time>2019-09-15T12:58:52Z</time>
      </trkpt>
      <trkpt lat="48.57106" lon="2.57749">
        <ele>80.89</ele>
        <time>2019-09-15T12:59:07Z</time>
      </trkpt>
      <trkpt lat="48.57119" lon="2.57876">
        <ele>80.41</ele>
        <time>2019-09-15T12:59:22Z</time>
      </trkpt>
      <trkpt lat="48.57131" lon="2.57934">
        <ele>80.41</ele>
        <time>2019-09-15T12:59:29Z</time>
      </trkpt>
      <trkpt lat="48.57136" lon="2.57968">
        <ele>80.89</ele>
        <time>2019-09-15T12:59:33Z</time>
      </trkpt>
      <trkpt lat="48.57136" lon="2.57994">
        <ele>80.41</ele>
        <time>2019-09-15T12:59:36Z</time>
      </trkpt>
      <trkpt lat="48.57121" lon="2.58129">
        <ele>77.52</ele>
        <time>2019-09-15T12:59:51Z</time>
      </trkpt>
      <trkpt lat="48.57117" lon="2.58146">
        <ele>77.52</ele>
        <time>2019-09-15T12:59:53Z</time>
      </trkpt>
      <trkpt lat="48.57104" lon="2.58184">
        <ele>76.56</ele>
        <time>2019-09-15T12:59:58Z</time>
      </trkpt>
      <trkpt lat="48.57081" lon="2.58204">
        <ele>76.08</ele>
        <time>2019-09-15T13:00:03Z</time>
      </trkpt>
      <trkpt lat="48.57071" lon="2.58204">
        <ele>75.6</ele>
        <time>2019-09-15T13:00:05Z</time>
      </trkpt>
      <trkpt lat="48.57013" lon="2.5818">
        <ele>76.08</ele>
        <time>2019-09-15T13:00:16Z</time>
      </trkpt>
      <trkpt lat="48.56972" lon="2.58166">
        <ele>76.08</ele>
        <time>2019-09-15T13:00:24Z</time>
      </trkpt>
      <trkpt lat="48.56957" lon="2.58164">
        <ele>75.6</ele>
        <time>2019-09-15T13:00:27Z</time>
      </trkpt>
      <trkpt lat="48.56913" lon="2.58164">
        <ele>75.6</ele>
        <time>2019-09-15T13:00:36Z</time>
      </trkpt>
      <trkpt lat="48.56889" lon="2.58166">
        <ele>75.6</ele>
        <time>2019-09-15T13:00:41Z</time>
      </trkpt>
      <trkpt lat="48.5688" lon="2.58166">
        <ele>76.08</ele>
        <time>2019-09-15T13:00:43Z</time>
      </trkpt>
      <trkpt lat="48.5687" lon="2.58167">
        <ele>76.56</ele>
        <time>2019-09-15T13:00:45Z</time>
      </trkpt>
      <trkpt lat="48.56828" lon="2.58167">
        <ele>78</ele>
        <time>2019-09-15T13:00:53Z</time>
      </trkpt>
      <trkpt lat="48.56787" lon="2.58167">
        <ele>79.45</ele>
        <time>2019-09-15T13:01:01Z</time>
      </trkpt>
      <trkpt lat="48.5673" lon="2.58161">
        <ele>78.48</ele>
        <time>2019-09-15T13:01:12Z</time>
      </trkpt>
      <trkpt lat="48.56715" lon="2.58157">
        <ele>78.48</ele>
        <time>2019-09-15T13:01:15Z</time>
      </trkpt>
      <trkpt lat="48.56704" lon="2.58153">
        <ele>78</ele>
        <time>2019-09-15T13:01:17Z</time>
      </trkpt>
      <trkpt lat="48.56689" lon="2.58148">
        <ele>77.52</ele>
        <time>2019-09-15T13:01:20Z</time>
      </trkpt>
      <trkpt lat="48.56653" lon="2.58136">
        <ele>76.56</ele>
        <time>2019-09-15T13:01:27Z</time>
      </trkpt>
      <trkpt lat="48.56615" lon="2.58125">
        <ele>75.6</ele>
        <time>2019-09-15T13:01:34Z</time>
      </trkpt>
      <trkpt lat="48.5655" lon="2.58104">
        <ele>74.16</ele>
        <time>2019-09-15T13:01:46Z</time>
      </trkpt>
      <trkpt lat="48.56521" lon="2.58096">
        <ele>73.68</ele>
        <time>2019-09-15T13:01:51Z</time>
      </trkpt>
      <trkpt lat="48.56498" lon="2.58095">
        <ele>73.68</ele>
        <time>2019-09-15T13:01:55Z</time>
      </trkpt>
      <trkpt lat="48.56462" lon="2.58086">
        <ele>75.12</ele>
        <time>2019-09-15T13:02:02Z</time>
      </trkpt>
      <trkpt lat="48.56415" lon="2.58071">
        <ele>75.6</ele>
        <time>2019-09-15T13:02:11Z</time>
      </trkpt>
      <trkpt lat="48.56362" lon="2.58055">
        <ele>76.08</ele>
        <time>2019-09-15T13:02:21Z</time>
      </trkpt>
      <trkpt lat="48.56335" lon="2.58048">
        <ele>75.12</ele>
        <time>2019-09-15T13:02:26Z</time>
      </trkpt>
      <trkpt lat="48.563" lon="2.58063">
        <ele>73.2</ele>
        <time>2019-09-15T13:02:33Z</time>
      </trkpt>
      <trkpt lat="48.56289" lon="2.58099">
        <ele>72.72</ele>
        <time>2019-09-15T13:02:38Z</time>
      </trkpt>
      <trkpt lat="48.56271" lon="2.58194">
        <ele>73.2</ele>
        <time>2019-09-15T13:02:50Z</time>
      </trkpt>
      <trkpt lat="48.56253" lon="2.58223">
        <ele>73.2</ele>
        <time>2019-09-15T13:02:55Z</time>
      </trkpt>
      <trkpt lat="48.56178" lon="2.58279">
        <ele>70.31</ele>
        <time>2019-09-15T13:03:10Z</time>
      </trkpt>
      <trkpt lat="48.5611" lon="2.5834">
        <ele>66.47</ele>
        <time>2019-09-15T13:03:21Z</time>
      </trkpt>
      <trkpt lat="48.56105" lon="2.58345">
        <ele>65.99</ele>
        <time>2019-09-15T13:03:22Z</time>
      </trkpt>
      <trkpt lat="48.56105" lon="2.58363">
        <ele>63.58</ele>
        <time>2019-09-15T13:03:27Z</time>
      </trkpt>
      <trkpt lat="48.56143" lon="2.58383">
        <ele>59.74</ele>
        <time>2019-09-15T13:03:39Z</time>
      </trkpt>
      <trkpt lat="48.56136" lon="2.58412">
        <ele>59.26</ele>
        <time>2019-09-15T13:03:49Z</time>
      </trkpt>
      <trkpt lat="48.56134" lon="2.58414">
        <ele>59.26</ele>
        <time>2019-09-15T13:03:50Z</time>
      </trkpt>
      <trkpt lat="48.56113" lon="2.5844">
        <ele>59.26</ele>
        <time>2019-09-15T13:04:00Z</time>
      </trkpt>
      <trkpt lat="48.56087" lon="2.58477">
        <ele>59.74</ele>
        <time>2019-09-15T13:04:09Z</time>
      </trkpt>
      <trkpt lat="48.56081" lon="2.58486">
        <ele>59.74</ele>
        <time>2019-09-15T13:04:11Z</time>
      </trkpt>
      <trkpt lat="48.56073" lon="2.58503">
        <ele>60.22</ele>
        <time>2019-09-15T13:04:14Z</time>
      </trkpt>
      <trkpt lat="48.56062" lon="2.58534">
        <ele>61.18</ele>
        <time>2019-09-15T13:04:19Z</time>
      </trkpt>
      <trkpt lat="48.56023" lon="2.58615">
        <ele>66.47</ele>
        <time>2019-09-15T13:04:34Z</time>
      </trkpt>
      <trkpt lat="48.5602" lon="2.58621">
        <ele>66.47</ele>
        <time>2019-09-15T13:04:35Z</time>
      </trkpt>
      <trkpt lat="48.56022" lon="2.58655">
        <ele>66.95</ele>
        <time>2019-09-15T13:04:40Z</time>
      </trkpt>
      <trkpt lat="48.56056" lon="2.58704">
        <ele>67.43</ele>
        <time>2019-09-15T13:04:52Z</time>
      </trkpt>
      <trkpt lat="48.5607" lon="2.58722">
        <ele>68.39</ele>
        <time>2019-09-15T13:04:59Z</time>
      </trkpt>
      <trkpt lat="48.56077" lon="2.58739">
        <ele>69.35</ele>
        <time>2019-09-15T13:05:07Z</time>
      </trkpt>
      <trkpt lat="48.56079" lon="2.58746">
        <ele>69.83</ele>
        <time>2019-09-15T13:05:10Z</time>
      </trkpt>
      <trkpt lat="48.56075" lon="2.5875">
        <ele>70.31</ele>
        <time>2019-09-15T13:05:14Z</time>
      </trkpt>
      <trkpt lat="48.56072" lon="2.5875">
        <ele>70.79</ele>
        <time>2019-09-15T13:05:16Z</time>
      </trkpt>
      <trkpt lat="48.56059" lon="2.58756">
        <ele>71.27</ele>
        <time>2019-09-15T13:05:22Z</time>
      </trkpt>
      <trkpt lat="48.56049" lon="2.58775">
        <ele>72.24</ele>
        <time>2019-09-15T13:05:28Z</time>
      </trkpt>
      <trkpt lat="48.56047" lon="2.58778">
        <ele>72.72</ele>
        <time>2019-09-15T13:05:30Z</time>
      </trkpt>
      <trkpt lat="48.56066" lon="2.58806">
        <ele>74.64</ele>
        <time>2019-09-15T13:05:42Z</time>
      </trkpt>
      <trkpt lat="48.56115" lon="2.58846">
        <ele>77.04</ele>
        <time>2019-09-15T13:05:57Z</time>
      </trkpt>
      <trkpt lat="48.56172" lon="2.58896">
        <ele>75.12</ele>
        <time>2019-09-15T13:06:12Z</time>
      </trkpt>
      <trkpt lat="48.56227" lon="2.58952">
        <ele>72.24</ele>
        <time>2019-09-15T13:06:27Z</time>
      </trkpt>
      <trkpt lat="48.56277" lon="2.58995">
        <ele>71.27</ele>
        <time>2019-09-15T13:06:40Z</time>
      </trkpt>
      <trkpt lat="48.56327" lon="2.59039">
        <ele>72.72</ele>
        <time>2019-09-15T13:06:53Z</time>
      </trkpt>
      <trkpt lat="48.56374" lon="2.59083">
        <ele>72.24</ele>
        <time>2019-09-15T13:07:10Z</time>
      </trkpt>
      <trkpt lat="48.56394" lon="2.59096">
        <ele>72.72</ele>
        <time>2019-09-15T13:07:23Z</time>
      </trkpt>
      <trkpt lat="48.56391" lon="2.59096">
        <ele>70.79</ele>
        <time>2019-09-15T13:07:36Z</time>
      </trkpt>
      <trkpt lat="48.56385" lon="2.59092">
        <ele>69.83</ele>
        <time>2019-09-15T13:07:39Z</time>
      </trkpt>
      <trkpt lat="48.56379" lon="2.59101">
        <ele>68.87</ele>
        <time>2019-09-15T13:07:43Z</time>
      </trkpt>
      <trkpt lat="48.56366" lon="2.5912">
        <ele>67.43</ele>
        <time>2019-09-15T13:07:50Z</time>
      </trkpt>
      <trkpt lat="48.56357" lon="2.59136">
        <ele>65.99</ele>
        <time>2019-09-15T13:07:55Z</time>
      </trkpt>
      <trkpt lat="48.56322" lon="2.59169">
        <ele>64.55</ele>
        <time>2019-09-15T13:08:06Z</time>
      </trkpt>
      <trkpt lat="48.5629" lon="2.59196">
        <ele>64.07</ele>
        <time>2019-09-15T13:08:15Z</time>
      </trkpt>
      <trkpt lat="48.56259" lon="2.59238">
        <ele>64.55</ele>
        <time>2019-09-15T13:08:26Z</time>
      </trkpt>
      <trkpt lat="48.56225" lon="2.59275">
        <ele>65.03</ele>
        <time>2019-09-15T13:08:37Z</time>
      </trkpt>
      <trkpt lat="48.56178" lon="2.59265">
        <ele>66.95</ele>
        <time>2019-09-15T13:08:48Z</time>
      </trkpt>
      <trkpt lat="48.56147" lon="2.5928">
        <ele>68.87</ele>
        <time>2019-09-15T13:08:56Z</time>
      </trkpt>
      <trkpt lat="48.56095" lon="2.59299">
        <ele>68.87</ele>
        <time>2019-09-15T13:09:09Z</time>
      </trkpt>
      <trkpt lat="48.56091" lon="2.59301">
        <ele>68.87</ele>
        <time>2019-09-15T13:09:10Z</time>
      </trkpt>
      <trkpt lat="48.56066" lon="2.59292">
        <ele>70.79</ele>
        <time>2019-09-15T13:09:18Z</time>
      </trkpt>
      <trkpt lat="48.56063" lon="2.59271">
        <ele>70.79</ele>
        <time>2019-09-15T13:09:21Z</time>
      </trkpt>
      <trkpt lat="48.56052" lon="2.59225">
        <ele>71.76</ele>
        <time>2019-09-15T13:09:28Z</time>
      </trkpt>
      <trkpt lat="48.56028" lon="2.5918">
        <ele>72.24</ele>
        <time>2019-09-15T13:09:36Z</time>
      </trkpt>
      <trkpt lat="48.56011" lon="2.59139">
        <ele>72.24</ele>
        <time>2019-09-15T13:09:42Z</time>
      </trkpt>
      <trkpt lat="48.56006" lon="2.59124">
        <ele>72.24</ele>
        <time>2019-09-15T13:09:44Z</time>
      </trkpt>
      <trkpt lat="48.56001" lon="2.59108">
        <ele>72.24</ele>
        <time>2019-09-15T13:09:46Z</time>
      </trkpt>
      <trkpt lat="48.55989" lon="2.59006">
        <ele>73.68</ele>
        <time>2019-09-15T13:09:58Z</time>
      </trkpt>
      <trkpt lat="48.55989" lon="2.58997">
        <ele>73.68</ele>
        <time>2019-09-15T13:09:59Z</time>
      </trkpt>
      <trkpt lat="48.55975" lon="2.58891">
        <ele>74.16</ele>
        <time>2019-09-15T13:10:12Z</time>
      </trkpt>
      <trkpt lat="48.55969" lon="2.58847">
        <ele>73.68</ele>
        <time>2019-09-15T13:10:17Z</time>
      </trkpt>
      <trkpt lat="48.55951" lon="2.58753">
        <ele>71.27</ele>
        <time>2019-09-15T13:10:28Z</time>
      </trkpt>
      <trkpt lat="48.55939" lon="2.58723">
        <ele>70.31</ele>
        <time>2019-09-15T13:10:32Z</time>
      </trkpt>
      <trkpt lat="48.55892" lon="2.58669">
        <ele>68.87</ele>
        <time>2019-09-15T13:10:43Z</time>
      </trkpt>
      <trkpt lat="48.55859" lon="2.58631">
        <ele>68.39</ele>
        <time>2019-09-15T13:10:51Z</time>
      </trkpt>
      <trkpt lat="48.55831" lon="2.58598">
        <ele>67.43</ele>
        <time>2019-09-15T13:10:58Z</time>
      </trkpt>
      <trkpt lat="48.55823" lon="2.58587">
        <ele>67.43</ele>
        <time>2019-09-15T13:11:00Z</time>
      </trkpt>
      <trkpt lat="48.55802" lon="2.58565">
        <ele>67.91</ele>
        <time>2019-09-15T13:11:05Z</time>
      </trkpt>
      <trkpt lat="48.55783" lon="2.58553">
        <ele>67.91</ele>
        <time>2019-09-15T13:11:09Z</time>
      </trkpt>
      <trkpt lat="48.55732" lon="2.58506">
        <ele>69.83</ele>
        <time>2019-09-15T13:11:21Z</time>
      </trkpt>
      <trkpt lat="48.55723" lon="2.585">
        <ele>69.83</ele>
        <time>2019-09-15T13:11:23Z</time>
      </trkpt>
      <trkpt lat="48.55702" lon="2.58485">
        <ele>70.31</ele>
        <time>2019-09-15T13:11:27Z</time>
      </trkpt>
      <trkpt lat="48.55687" lon="2.58454">
        <ele>71.27</ele>
        <time>2019-09-15T13:11:32Z</time>
      </trkpt>
      <trkpt lat="48.55687" lon="2.58384">
        <ele>71.76</ele>
        <time>2019-09-15T13:11:40Z</time>
      </trkpt>
      <trkpt lat="48.55662" lon="2.58342">
        <ele>71.76</ele>
        <time>2019-09-15T13:11:48Z</time>
      </trkpt>
      <trkpt lat="48.55651" lon="2.58349">
        <ele>70.79</ele>
        <time>2019-09-15T13:11:50Z</time>
      </trkpt>
      <trkpt lat="48.55635" lon="2.58361">
        <ele>69.83</ele>
        <time>2019-09-15T13:11:53Z</time>
      </trkpt>
      <trkpt lat="48.55619" lon="2.58371">
        <ele>69.35</ele>
        <time>2019-09-15T13:11:56Z</time>
      </trkpt>
      <trkpt lat="48.5559" lon="2.5839">
        <ele>69.35</ele>
        <time>2019-09-15T13:12:02Z</time>
      </trkpt>
      <trkpt lat="48.55567" lon="2.58387">
        <ele>68.87</ele>
        <time>2019-09-15T13:12:09Z</time>
      </trkpt>
      <trkpt lat="48.55565" lon="2.58374">
        <ele>68.87</ele>
        <time>2019-09-15T13:12:11Z</time>
      </trkpt>
      <trkpt lat="48.55555" lon="2.5829">
        <ele>67.43</ele>
        <time>2019-09-15T13:12:22Z</time>
      </trkpt>
      <trkpt lat="48.55552" lon="2.58266">
        <ele>66.95</ele>
        <time>2019-09-15T13:12:25Z</time>
      </trkpt>
      <trkpt lat="48.55542" lon="2.58199">
        <ele>67.91</ele>
        <time>2019-09-15T13:12:34Z</time>
      </trkpt>
      <trkpt lat="48.55537" lon="2.58155">
        <ele>69.35</ele>
        <time>2019-09-15T13:12:40Z</time>
      </trkpt>
      <trkpt lat="48.55532" lon="2.58124">
        <ele>69.83</ele>
        <time>2019-09-15T13:12:44Z</time>
      </trkpt>
      <trkpt lat="48.55527" lon="2.58098">
        <ele>70.79</ele>
        <time>2019-09-15T13:12:48Z</time>
      </trkpt>
      <trkpt lat="48.55539" lon="2.58082">
        <ele>71.27</ele>
        <time>2019-09-15T13:12:53Z</time>
      </trkpt>
      <trkpt lat="48.55566" lon="2.58073">
        <ele>71.76</ele>
        <time>2019-09-15T13:12:59Z</time>
      </trkpt>
      <trkpt lat="48.5558" lon="2.5807">
        <ele>71.76</ele>
        <time>2019-09-15T13:13:02Z</time>
      </trkpt>
      <trkpt lat="48.55608" lon="2.58067">
        <ele>71.76</ele>
        <time>2019-09-15T13:13:08Z</time>
      </trkpt>
      <trkpt lat="48.5562" lon="2.58054">
        <ele>71.27</ele>
        <time>2019-09-15T13:13:12Z</time>
      </trkpt>
      <trkpt lat="48.55622" lon="2.58038">
        <ele>71.27</ele>
        <time>2019-09-15T13:13:15Z</time>
      </trkpt>
      <trkpt lat="48.55624" lon="2.58007">
        <ele>71.76</ele>
        <time>2019-09-15T13:13:20Z</time>
      </trkpt>
      <trkpt lat="48.55627" lon="2.57983">
        <ele>71.27</ele>
        <time>2019-09-15T13:13:24Z</time>
      </trkpt>
      <trkpt lat="48.55631" lon="2.57937">
        <ele>71.27</ele>
        <time>2019-09-15T13:13:31Z</time>
      </trkpt>
      <trkpt lat="48.55633" lon="2.57918">
        <ele>71.27</ele>
        <time>2019-09-15T13:13:34Z</time>
      </trkpt>
      <trkpt lat="48.55635" lon="2.57899">
        <ele>72.24</ele>
        <time>2019-09-15T13:13:37Z</time>
      </trkpt>
      <trkpt lat="48.55632" lon="2.57874">
        <ele>72.24</ele>
        <time>2019-09-15T13:13:41Z</time>
      </trkpt>
      <trkpt lat="48.55624" lon="2.5785">
        <ele>72.24</ele>
        <time>2019-09-15T13:13:45Z</time>
      </trkpt>
      <trkpt lat="48.55613" lon="2.57793">
        <ele>72.72</ele>
        <time>2019-09-15T13:13:54Z</time>
      </trkpt>
      <trkpt lat="48.55612" lon="2.5778">
        <ele>72.72</ele>
        <time>2019-09-15T13:13:56Z</time>
      </trkpt>
      <trkpt lat="48.55611" lon="2.57754">
        <ele>73.68</ele>
        <time>2019-09-15T13:14:00Z</time>
      </trkpt>
      <trkpt lat="48.55615" lon="2.57727">
        <ele>73.68</ele>
        <time>2019-09-15T13:14:04Z</time>
      </trkpt>
      <trkpt lat="48.55636" lon="2.57694">
        <ele>75.12</ele>
        <time>2019-09-15T13:14:11Z</time>
      </trkpt>
      <trkpt lat="48.55656" lon="2.57686">
        <ele>74.64</ele>
        <time>2019-09-15T13:14:16Z</time>
      </trkpt>
      <trkpt lat="48.55668" lon="2.57677">
        <ele>74.64</ele>
        <time>2019-09-15T13:14:19Z</time>
      </trkpt>
      <trkpt lat="48.55693" lon="2.57621">
        <ele>73.68</ele>
        <time>2019-09-15T13:14:30Z</time>
      </trkpt>
      <trkpt lat="48.55726" lon="2.57545">
        <ele>71.76</ele>
        <time>2019-09-15T13:14:44Z</time>
      </trkpt>
      <trkpt lat="48.55757" lon="2.57487">
        <ele>71.76</ele>
        <time>2019-09-15T13:14:56Z</time>
      </trkpt>
      <trkpt lat="48.55768" lon="2.57469">
        <ele>71.27</ele>
        <time>2019-09-15T13:15:00Z</time>
      </trkpt>
      <trkpt lat="48.55779" lon="2.57449">
        <ele>71.27</ele>
        <time>2019-09-15T13:15:04Z</time>
      </trkpt>
      <trkpt lat="48.55812" lon="2.57393">
        <ele>69.83</ele>
        <time>2019-09-15T13:15:16Z</time>
      </trkpt>
      <trkpt lat="48.55844" lon="2.5734">
        <ele>71.27</ele>
        <time>2019-09-15T13:15:27Z</time>
      </trkpt>
      <trkpt lat="48.5585" lon="2.57331">
        <ele>72.24</ele>
        <time>2019-09-15T13:15:29Z</time>
      </trkpt>
      <trkpt lat="48.55876" lon="2.57279">
        <ele>74.64</ele>
        <time>2019-09-15T13:15:39Z</time>
      </trkpt>
      <trkpt lat="48.55883" lon="2.57263">
        <ele>75.12</ele>
        <time>2019-09-15T13:15:42Z</time>
      </trkpt>
      <trkpt lat="48.55904" lon="2.57211">
        <ele>76.08</ele>
        <time>2019-09-15T13:15:52Z</time>
      </trkpt>
      <trkpt lat="48.55913" lon="2.5719">
        <ele>77.04</ele>
        <time>2019-09-15T13:15:56Z</time>
      </trkpt>
      <trkpt lat="48.55938" lon="2.57116">
        <ele>79.45</ele>
        <time>2019-09-15T13:16:09Z</time>
      </trkpt>
      <trkpt lat="48.55965" lon="2.5704">
        <ele>79.93</ele>
        <time>2019-09-15T13:16:23Z</time>
      </trkpt>
      <trkpt lat="48.55974" lon="2.57015">
        <ele>79.93</ele>
        <time>2019-09-15T13:16:28Z</time>
      </trkpt>
      <trkpt lat="48.55992" lon="2.56962">
        <ele>81.85</ele>
        <time>2019-09-15T13:16:38Z</time>
      </trkpt>
      <trkpt lat="48.55998" lon="2.56946">
        <ele>82.33</ele>
        <time>2019-09-15T13:16:41Z</time>
      </trkpt>
      <trkpt lat="48.5601" lon="2.56913">
        <ele>81.37</ele>
        <time>2019-09-15T13:16:47Z</time>
      </trkpt>
      <trkpt lat="48.56014" lon="2.569">
        <ele>81.37</ele>
        <time>2019-09-15T13:16:49Z</time>
      </trkpt>
      <trkpt lat="48.56023" lon="2.56859">
        <ele>80.89</ele>
        <time>2019-09-15T13:16:56Z</time>
      </trkpt>
      <trkpt lat="48.56038" lon="2.56848">
        <ele>80.89</ele>
        <time>2019-09-15T13:17:01Z</time>
      </trkpt>
      <trkpt lat="48.56096" lon="2.56834">
        <ele>79.93</ele>
        <time>2019-09-15T13:17:14Z</time>
      </trkpt>
      <trkpt lat="48.56101" lon="2.56833">
        <ele>79.93</ele>
        <time>2019-09-15T13:17:15Z</time>
      </trkpt>
      <trkpt lat="48.5611" lon="2.56831">
        <ele>79.93</ele>
        <time>2019-09-15T13:17:17Z</time>
      </trkpt>
      <trkpt lat="48.56134" lon="2.56827">
        <ele>80.41</ele>
        <time>2019-09-15T13:17:22Z</time>
      </trkpt>
      <trkpt lat="48.56193" lon="2.56834">
        <ele>78.48</ele>
        <time>2019-09-15T13:17:33Z</time>
      </trkpt>
      <trkpt lat="48.56204" lon="2.56833">
        <ele>77.52</ele>
        <time>2019-09-15T13:17:35Z</time>
      </trkpt>
      <trkpt lat="48.56232" lon="2.56823">
        <ele>76.08</ele>
        <time>2019-09-15T13:17:40Z</time>
      </trkpt>
      <trkpt lat="48.5629" lon="2.56769">
        <ele>72.72</ele>
        <time>2019-09-15T13:17:50Z</time>
      </trkpt>
      <trkpt lat="48.56352" lon="2.5668">
        <ele>68.87</ele>
        <time>2019-09-15T13:18:00Z</time>
      </trkpt>
      <trkpt lat="48.56386" lon="2.56602">
        <ele>64.55</ele>
        <time>2019-09-15T13:18:08Z</time>
      </trkpt>
      <trkpt lat="48.56388" lon="2.56591">
        <ele>63.58</ele>
        <time>2019-09-15T13:18:10Z</time>
      </trkpt>
      <trkpt lat="48.56376" lon="2.56577">
        <ele>61.18</ele>
        <time>2019-09-15T13:18:14Z</time>
      </trkpt>
      <trkpt lat="48.56358" lon="2.56566">
        <ele>58.78</ele>
        <time>2019-09-15T13:18:18Z</time>
      </trkpt>
      <trkpt lat="48.56324" lon="2.56545">
        <ele>57.34</ele>
        <time>2019-09-15T13:18:25Z</time>
      </trkpt>
      <trkpt lat="48.56304" lon="2.56531">
        <ele>57.34</ele>
        <time>2019-09-15T13:18:29Z</time>
      </trkpt>
      <trkpt lat="48.56274" lon="2.56525">
        <ele>57.82</ele>
        <time>2019-09-15T13:18:35Z</time>
      </trkpt>
      <trkpt lat="48.56248" lon="2.56517">
        <ele>58.78</ele>
        <time>2019-09-15T13:18:41Z</time>
      </trkpt>
      <trkpt lat="48.56211" lon="2.56483">
        <ele>60.7</ele>
        <time>2019-09-15T13:18:53Z</time>
      </trkpt>
      <trkpt lat="48.56165" lon="2.56459">
        <ele>59.26</ele>
        <time>2019-09-15T13:19:05Z</time>
      </trkpt>
      <trkpt lat="48.56125" lon="2.56437">
        <ele>56.86</ele>
        <time>2019-09-15T13:19:18Z</time>
      </trkpt>
      <trkpt lat="48.56115" lon="2.56436">
        <ele>55.41</ele>
        <time>2019-09-15T13:19:24Z</time>
      </trkpt>
      <trkpt lat="48.56111" lon="2.5645">
        <ele>54.93</ele>
        <time>2019-09-15T13:19:28Z</time>
      </trkpt>
      <trkpt lat="48.56108" lon="2.56486">
        <ele>55.89</ele>
        <time>2019-09-15T13:19:40Z</time>
      </trkpt>
      <trkpt lat="48.56097" lon="2.56504">
        <ele>56.86</ele>
        <time>2019-09-15T13:19:47Z</time>
      </trkpt>
      <trkpt lat="48.56085" lon="2.56555">
        <ele>61.18</ele>
        <time>2019-09-15T13:20:06Z</time>
      </trkpt>
      <trkpt lat="48.56079" lon="2.56579">
        <ele>64.55</ele>
        <time>2019-09-15T13:20:15Z</time>
      </trkpt>
      <trkpt lat="48.56072" lon="2.5663">
        <ele>67.91</ele>
        <time>2019-09-15T13:20:32Z</time>
      </trkpt>
      <trkpt lat="48.56067" lon="2.5664">
        <ele>68.87</ele>
        <time>2019-09-15T13:20:36Z</time>
      </trkpt>
      <trkpt lat="48.56056" lon="2.56679">
        <ele>71.27</ele>
        <time>2019-09-15T13:20:50Z</time>
      </trkpt>
      <trkpt lat="48.56049" lon="2.56725">
        <ele>75.6</ele>
        <time>2019-09-15T13:21:02Z</time>
      </trkpt>
      <trkpt lat="48.56031" lon="2.56753">
        <ele>75.6</ele>
        <time>2019-09-15T13:21:11Z</time>
      </trkpt>
      <trkpt lat="48.56024" lon="2.56758">
        <ele>75.12</ele>
        <time>2019-09-15T13:21:14Z</time>
      </trkpt>
      <trkpt lat="48.56018" lon="2.56786">
        <ele>76.56</ele>
        <time>2019-09-15T13:21:21Z</time>
      </trkpt>
      <trkpt lat="48.56014" lon="2.56799">
        <ele>79.45</ele>
        <time>2019-09-15T13:21:26Z</time>
      </trkpt>
      <trkpt lat="48.56007" lon="2.56834">
        <ele>80.41</ele>
        <time>2019-09-15T13:21:37Z</time>
      </trkpt>
      <trkpt lat="48.56004" lon="2.56857">
        <ele>79.93</ele>
        <time>2019-09-15T13:21:42Z</time>
      </trkpt>
      <trkpt lat="48.55996" lon="2.5686">
        <ele>79.45</ele>
        <time>2019-09-15T13:21:53Z</time>
      </trkpt>
      <trkpt lat="48.55995" lon="2.56861">
        <ele>79.45</ele>
        <time>2019-09-15T13:22:18Z</time>
      </trkpt>
      <trkpt lat="48.55996" lon="2.56859">
        <ele>80.41</ele>
        <time>2019-09-15T13:22:39Z</time>
      </trkpt>
      <trkpt lat="48.55995" lon="2.56861">
        <ele>80.41</ele>
        <time>2019-09-15T13:22:55Z</time>
      </trkpt>
      <trkpt lat="48.55994" lon="2.56861">
        <ele>79.93</ele>
        <time>2019-09-15T13:23:06Z</time>
      </trkpt>
      <trkpt lat="48.5599" lon="2.56846">
        <ele>80.89</ele>
        <time>2019-09-15T13:23:11Z</time>
      </trkpt>
      <trkpt lat="48.55991" lon="2.56835">
        <ele>80.89</ele>
        <time>2019-09-15T13:23:13Z</time>
      </trkpt>
      <trkpt lat="48.55991" lon="2.56822">
        <ele>80.89</ele>
        <time>2019-09-15T13:23:15Z</time>
      </trkpt>
      <trkpt lat="48.55999" lon="2.5676">
        <ele>81.37</ele>
        <time>2019-09-15T13:23:25Z</time>
      </trkpt>
      <trkpt lat="48.56003" lon="2.56731">
        <ele>81.37</ele>
        <time>2019-09-15T13:23:29Z</time>
      </trkpt>
      <trkpt lat="48.56006" lon="2.56693">
        <ele>81.85</ele>
        <time>2019-09-15T13:23:34Z</time>
      </trkpt>
      <trkpt lat="48.56012" lon="2.56643">
        <ele>81.85</ele>
        <time>2019-09-15T13:23:40Z</time>
      </trkpt>
      <trkpt lat="48.56028" lon="2.56509">
        <ele>79.45</ele>
        <time>2019-09-15T13:23:52Z</time>
      </trkpt>
      <trkpt lat="48.56039" lon="2.56409">
        <ele>73.68</ele>
        <time>2019-09-15T13:24:01Z</time>
      </trkpt>
      <trkpt lat="48.56021" lon="2.56402">
        <ele>66.47</ele>
        <time>2019-09-15T13:24:10Z</time>
      </trkpt>
      <trkpt lat="48.56012" lon="2.56401">
        <ele>64.07</ele>
        <time>2019-09-15T13:24:13Z</time>
      </trkpt>
      <trkpt lat="48.55984" lon="2.56396">
        <ele>56.86</ele>
        <time>2019-09-15T13:24:22Z</time>
      </trkpt>
      <trkpt lat="48.55949" lon="2.56389">
        <ele>47.24</ele>
        <time>2019-09-15T13:24:32Z</time>
      </trkpt>
      <trkpt lat="48.55925" lon="2.56384">
        <ele>40.51</ele>
        <time>2019-09-15T13:24:37Z</time>
      </trkpt>
      <trkpt lat="48.55889" lon="2.56384">
        <ele>30.42</ele>
        <time>2019-09-15T13:24:45Z</time>
      </trkpt>
      <trkpt lat="48.55858" lon="2.56395">
        <ele>26.09</ele>
        <time>2019-09-15T13:24:51Z</time>
      </trkpt>
      <trkpt lat="48.5584" lon="2.56401">
        <ele>24.17</ele>
        <time>2019-09-15T13:24:54Z</time>
      </trkpt>
      <trkpt lat="48.55804" lon="2.56403">
        <ele>21.77</ele>
        <time>2019-09-15T13:25:00Z</time>
      </trkpt>
      <trkpt lat="48.55775" lon="2.56401">
        <ele>18.88</ele>
        <time>2019-09-15T13:25:05Z</time>
      </trkpt>
      <trkpt lat="48.55758" lon="2.56399">
        <ele>19.36</ele>
        <time>2019-09-15T13:25:08Z</time>
      </trkpt>
      <trkpt lat="48.55738" lon="2.56394">
        <ele>19.84</ele>
        <time>2019-09-15T13:25:12Z</time>
      </trkpt>
      <trkpt lat="48.5569" lon="2.56391">
        <ele>24.17</ele>
        <time>2019-09-15T13:25:24Z</time>
      </trkpt>
      <trkpt lat="48.55659" lon="2.5639">
        <ele>30.42</ele>
        <time>2019-09-15T13:25:36Z</time>
      </trkpt>
      <trkpt lat="48.55631" lon="2.56384">
        <ele>36.19</ele>
        <time>2019-09-15T13:25:48Z</time>
      </trkpt>
      <trkpt lat="48.55602" lon="2.56382">
        <ele>40.99</ele>
        <time>2019-09-15T13:25:59Z</time>
      </trkpt>
      <trkpt lat="48.55595" lon="2.56354">
        <ele>44.36</ele>
        <time>2019-09-15T13:26:06Z</time>
      </trkpt>
      <trkpt lat="48.55591" lon="2.56298">
        <ele>51.09</ele>
        <time>2019-09-15T13:26:15Z</time>
      </trkpt>
      <trkpt lat="48.5559" lon="2.5627">
        <ele>53.97</ele>
        <time>2019-09-15T13:26:19Z</time>
      </trkpt>
      <trkpt lat="48.5559" lon="2.56258">
        <ele>55.41</ele>
        <time>2019-09-15T13:26:21Z</time>
      </trkpt>
      <trkpt lat="48.55588" lon="2.5623">
        <ele>57.34</ele>
        <time>2019-09-15T13:26:25Z</time>
      </trkpt>
      <trkpt lat="48.55588" lon="2.56215">
        <ele>57.82</ele>
        <time>2019-09-15T13:26:27Z</time>
      </trkpt>
      <trkpt lat="48.55586" lon="2.56186">
        <ele>58.78</ele>
        <time>2019-09-15T13:26:31Z</time>
      </trkpt>
      <trkpt lat="48.55584" lon="2.56152">
        <ele>59.26</ele>
        <time>2019-09-15T13:26:36Z</time>
      </trkpt>
      <trkpt lat="48.55589" lon="2.56089">
        <ele>57.82</ele>
        <time>2019-09-15T13:26:44Z</time>
      </trkpt>
      <trkpt lat="48.55608" lon="2.56009">
        <ele>56.37</ele>
        <time>2019-09-15T13:26:54Z</time>
      </trkpt>
      <trkpt lat="48.55618" lon="2.5598">
        <ele>55.41</ele>
        <time>2019-09-15T13:26:58Z</time>
      </trkpt>
      <trkpt lat="48.55623" lon="2.55966">
        <ele>54.93</ele>
        <time>2019-09-15T13:27:00Z</time>
      </trkpt>
      <trkpt lat="48.55634" lon="2.55938">
        <ele>54.45</ele>
        <time>2019-09-15T13:27:04Z</time>
      </trkpt>
      <trkpt lat="48.5565" lon="2.55895">
        <ele>54.93</ele>
        <time>2019-09-15T13:27:10Z</time>
      </trkpt>
      <trkpt lat="48.55664" lon="2.55867">
        <ele>54.93</ele>
        <time>2019-09-15T13:27:14Z</time>
      </trkpt>
      <trkpt lat="48.55698" lon="2.55775">
        <ele>56.37</ele>
        <time>2019-09-15T13:27:27Z</time>
      </trkpt>
      <trkpt lat="48.55723" lon="2.55726">
        <ele>58.3</ele>
        <time>2019-09-15T13:27:36Z</time>
      </trkpt>
      <trkpt lat="48.55732" lon="2.55733">
        <ele>58.3</ele>
        <time>2019-09-15T13:27:38Z</time>
      </trkpt>
      <trkpt lat="48.55774" lon="2.55796">
        <ele>57.82</ele>
        <time>2019-09-15T13:27:46Z</time>
      </trkpt>
      <trkpt lat="48.55788" lon="2.5582">
        <ele>56.37</ele>
        <time>2019-09-15T13:27:48Z</time>
      </trkpt>
      <trkpt lat="48.55823" lon="2.55856">
        <ele>54.93</ele>
        <time>2019-09-15T13:27:55Z</time>
      </trkpt>
      <trkpt lat="48.55824" lon="2.55858">
        <ele>54.93</ele>
        <time>2019-09-15T13:27:56Z</time>
      </trkpt>
      <trkpt lat="48.55822" lon="2.55886">
        <ele>54.45</ele>
        <time>2019-09-15T13:28:09Z</time>
      </trkpt>
      <trkpt lat="48.55818" lon="2.55918">
        <ele>53.49</ele>
        <time>2019-09-15T13:28:22Z</time>
      </trkpt>
      <trkpt lat="48.55816" lon="2.55954">
        <ele>55.41</ele>
        <time>2019-09-15T13:28:37Z</time>
      </trkpt>
      <trkpt lat="48.55817" lon="2.55972">
        <ele>56.86</ele>
        <time>2019-09-15T13:28:43Z</time>
      </trkpt>
      <trkpt lat="48.55816" lon="2.5599">
        <ele>57.82</ele>
        <time>2019-09-15T13:28:49Z</time>
      </trkpt>
      <trkpt lat="48.55812" lon="2.56018">
        <ele>59.74</ele>
        <time>2019-09-15T13:28:57Z</time>
      </trkpt>
      <trkpt lat="48.55824" lon="2.56033">
        <ele>62.62</ele>
        <time>2019-09-15T13:29:05Z</time>
      </trkpt>
      <trkpt lat="48.55838" lon="2.56047">
        <ele>61.18</ele>
        <time>2019-09-15T13:29:15Z</time>
      </trkpt>
      <trkpt lat="48.55842" lon="2.56055">
        <ele>60.22</ele>
        <time>2019-09-15T13:29:19Z</time>
      </trkpt>
      <trkpt lat="48.55856" lon="2.56095">
        <ele>59.74</ele>
        <time>2019-09-15T13:29:30Z</time>
      </trkpt>
      <trkpt lat="48.55864" lon="2.56108">
        <ele>60.22</ele>
        <time>2019-09-15T13:29:35Z</time>
      </trkpt>
      <trkpt lat="48.559" lon="2.56098">
        <ele>65.51</ele>
        <time>2019-09-15T13:29:49Z</time>
      </trkpt>
      <trkpt lat="48.55909" lon="2.5609">
        <ele>65.03</ele>
        <time>2019-09-15T13:29:54Z</time>
      </trkpt>
      <trkpt lat="48.55912" lon="2.56076">
        <ele>63.58</ele>
        <time>2019-09-15T13:29:59Z</time>
      </trkpt>
      <trkpt lat="48.55921" lon="2.56027">
        <ele>60.7</ele>
        <time>2019-09-15T13:30:10Z</time>
      </trkpt>
      <trkpt lat="48.55925" lon="2.56002">
        <ele>59.74</ele>
        <time>2019-09-15T13:30:14Z</time>
      </trkpt>
      <trkpt lat="48.55935" lon="2.55936">
        <ele>57.34</ele>
        <time>2019-09-15T13:30:25Z</time>
      </trkpt>
      <trkpt lat="48.55955" lon="2.55873">
        <ele>54.45</ele>
        <time>2019-09-15T13:30:37Z</time>
      </trkpt>
      <trkpt lat="48.55972" lon="2.55818">
        <ele>53.49</ele>
        <time>2019-09-15T13:30:47Z</time>
      </trkpt>
      <trkpt lat="48.55988" lon="2.55765">
        <ele>53.97</ele>
        <time>2019-09-15T13:30:57Z</time>
      </trkpt>
      <trkpt lat="48.56009" lon="2.55703">
        <ele>54.93</ele>
        <time>2019-09-15T13:31:09Z</time>
      </trkpt>
      <trkpt lat="48.56013" lon="2.55693">
        <ele>54.45</ele>
        <time>2019-09-15T13:31:11Z</time>
      </trkpt>
      <trkpt lat="48.56022" lon="2.55659">
        <ele>53.49</ele>
        <time>2019-09-15T13:31:16Z</time>
      </trkpt>
      <trkpt lat="48.5603" lon="2.55633">
        <ele>51.57</ele>
        <time>2019-09-15T13:31:20Z</time>
      </trkpt>
      <trkpt lat="48.56045" lon="2.55567">
        <ele>52.05</ele>
        <time>2019-09-15T13:31:32Z</time>
      </trkpt>
      <trkpt lat="48.56053" lon="2.55541">
        <ele>50.13</ele>
        <time>2019-09-15T13:31:38Z</time>
      </trkpt>
      <trkpt lat="48.56067" lon="2.55493">
        <ele>49.65</ele>
        <time>2019-09-15T13:31:45Z</time>
      </trkpt>
      <trkpt lat="48.56099" lon="2.55367">
        <ele>50.61</ele>
        <time>2019-09-15T13:32:00Z</time>
      </trkpt>
      <trkpt lat="48.56096" lon="2.5534">
        <ele>49.65</ele>
        <time>2019-09-15T13:32:04Z</time>
      </trkpt>
      <trkpt lat="48.56052" lon="2.55327">
        <ele>47.72</ele>
        <time>2019-09-15T13:32:12Z</time>
      </trkpt>
      <trkpt lat="48.56039" lon="2.55345">
        <ele>47.72</ele>
        <time>2019-09-15T13:32:17Z</time>
      </trkpt>
      <trkpt lat="48.56032" lon="2.55368">
        <ele>50.13</ele>
        <time>2019-09-15T13:32:22Z</time>
      </trkpt>
      <trkpt lat="48.55996" lon="2.55354">
        <ele>53.01</ele>
        <time>2019-09-15T13:32:32Z</time>
      </trkpt>
      <trkpt lat="48.55986" lon="2.55347">
        <ele>54.45</ele>
        <time>2019-09-15T13:32:41Z</time>
      </trkpt>
      <trkpt lat="48.55979" lon="2.55343">
        <ele>54.93</ele>
        <time>2019-09-15T13:32:54Z</time>
      </trkpt>
      <trkpt lat="48.55958" lon="2.5533">
        <ele>52.53</ele>
        <time>2019-09-15T13:33:00Z</time>
      </trkpt>
      <trkpt lat="48.55906" lon="2.55312">
        <ele>48.2</ele>
        <time>2019-09-15T13:33:09Z</time>
      </trkpt>
      <trkpt lat="48.5588" lon="2.55316">
        <ele>42.44</ele>
        <time>2019-09-15T13:33:17Z</time>
      </trkpt>
      <trkpt lat="48.55881" lon="2.55327">
        <ele>39.55</ele>
        <time>2019-09-15T13:33:27Z</time>
      </trkpt>
      <trkpt lat="48.5588" lon="2.55327">
        <ele>40.03</ele>
        <time>2019-09-15T13:33:34Z</time>
      </trkpt>
      <trkpt lat="48.55855" lon="2.55333">
        <ele>36.19</ele>
        <time>2019-09-15T13:33:41Z</time>
      </trkpt>
      <trkpt lat="48.55803" lon="2.55311">
        <ele>33.3</ele>
        <time>2019-09-15T13:33:55Z</time>
      </trkpt>
      <trkpt lat="48.55768" lon="2.55298">
        <ele>39.07</ele>
        <time>2019-09-15T13:34:08Z</time>
      </trkpt>
      <trkpt lat="48.55743" lon="2.5529">
        <ele>44.36</ele>
        <time>2019-09-15T13:34:20Z</time>
      </trkpt>
      <trkpt lat="48.55738" lon="2.55294">
        <ele>45.8</ele>
        <time>2019-09-15T13:34:23Z</time>
      </trkpt>
      <trkpt lat="48.55718" lon="2.55293">
        <ele>49.65</ele>
        <time>2019-09-15T13:34:34Z</time>
      </trkpt>
      <trkpt lat="48.5569" lon="2.55289">
        <ele>53.01</ele>
        <time>2019-09-15T13:34:46Z</time>
      </trkpt>
      <trkpt lat="48.55688" lon="2.55288">
        <ele>53.01</ele>
        <time>2019-09-15T13:34:47Z</time>
      </trkpt>
      <trkpt lat="48.55676" lon="2.55285">
        <ele>53.97</ele>
        <time>2019-09-15T13:34:52Z</time>
      </trkpt>
      <trkpt lat="48.5565" lon="2.55278">
        <ele>54.45</ele>
        <time>2019-09-15T13:35:02Z</time>
      </trkpt>
      <trkpt lat="48.55638" lon="2.55272">
        <ele>54.93</ele>
        <time>2019-09-15T13:35:07Z</time>
      </trkpt>
      <trkpt lat="48.55603" lon="2.55267">
        <ele>55.89</ele>
        <time>2019-09-15T13:35:20Z</time>
      </trkpt>
      <trkpt lat="48.55595" lon="2.55229">
        <ele>57.82</ele>
        <time>2019-09-15T13:35:30Z</time>
      </trkpt>
      <trkpt lat="48.5559" lon="2.55211">
        <ele>57.82</ele>
        <time>2019-09-15T13:35:34Z</time>
      </trkpt>
      <trkpt lat="48.55555" lon="2.55201">
        <ele>57.34</ele>
        <time>2019-09-15T13:35:47Z</time>
      </trkpt>
      <trkpt lat="48.55546" lon="2.55199">
        <ele>57.34</ele>
        <time>2019-09-15T13:35:51Z</time>
      </trkpt>
      <trkpt lat="48.5551" lon="2.55181">
        <ele>58.78</ele>
        <time>2019-09-15T13:36:02Z</time>
      </trkpt>
      <trkpt lat="48.55503" lon="2.55195">
        <ele>60.22</ele>
        <time>2019-09-15T13:36:08Z</time>
      </trkpt>
      <trkpt lat="48.55475" lon="2.55174">
        <ele>62.62</ele>
        <time>2019-09-15T13:36:19Z</time>
      </trkpt>
      <trkpt lat="48.55472" lon="2.55172">
        <ele>62.62</ele>
        <time>2019-09-15T13:36:21Z</time>
      </trkpt>
      <trkpt lat="48.55475" lon="2.55137">
        <ele>63.1</ele>
        <time>2019-09-15T13:36:28Z</time>
      </trkpt>
      <trkpt lat="48.55504" lon="2.55037">
        <ele>61.18</ele>
        <time>2019-09-15T13:36:41Z</time>
      </trkpt>
      <trkpt lat="48.55514" lon="2.54991">
        <ele>58.78</ele>
        <time>2019-09-15T13:36:50Z</time>
      </trkpt>
      <trkpt lat="48.55515" lon="2.54984">
        <ele>58.3</ele>
        <time>2019-09-15T13:36:51Z</time>
      </trkpt>
      <trkpt lat="48.55517" lon="2.54953">
        <ele>56.86</ele>
        <time>2019-09-15T13:36:55Z</time>
      </trkpt>
      <trkpt lat="48.55521" lon="2.54936">
        <ele>55.41</ele>
        <time>2019-09-15T13:36:58Z</time>
      </trkpt>
      <trkpt lat="48.55551" lon="2.54942">
        <ele>49.65</ele>
        <time>2019-09-15T13:37:09Z</time>
      </trkpt>
      <trkpt lat="48.55564" lon="2.54908">
        <ele>47.72</ele>
        <time>2019-09-15T13:37:18Z</time>
      </trkpt>
      <trkpt lat="48.55582" lon="2.54843">
        <ele>44.36</ele>
        <time>2019-09-15T13:37:32Z</time>
      </trkpt>
      <trkpt lat="48.55584" lon="2.54835">
        <ele>44.36</ele>
        <time>2019-09-15T13:37:35Z</time>
      </trkpt>
      <trkpt lat="48.55588" lon="2.54821">
        <ele>43.4</ele>
        <time>2019-09-15T13:37:39Z</time>
      </trkpt>
      <trkpt lat="48.55598" lon="2.54761">
        <ele>40.03</ele>
        <time>2019-09-15T13:37:53Z</time>
      </trkpt>
      <trkpt lat="48.55585" lon="2.54744">
        <ele>40.03</ele>
        <time>2019-09-15T13:38:00Z</time>
      </trkpt>
      <trkpt lat="48.55561" lon="2.54737">
        <ele>40.03</ele>
        <time>2019-09-15T13:38:06Z</time>
      </trkpt>
      <trkpt lat="48.55557" lon="2.54694">
        <ele>40.99</ele>
        <time>2019-09-15T13:38:13Z</time>
      </trkpt>
      <trkpt lat="48.55562" lon="2.54672">
        <ele>40.51</ele>
        <time>2019-09-15T13:38:16Z</time>
      </trkpt>
      <trkpt lat="48.55564" lon="2.54658">
        <ele>40.03</ele>
        <time>2019-09-15T13:38:18Z</time>
      </trkpt>
      <trkpt lat="48.55575" lon="2.5459">
        <ele>40.03</ele>
        <time>2019-09-15T13:38:27Z</time>
      </trkpt>
      <trkpt lat="48.55579" lon="2.54574">
        <ele>40.03</ele>
        <time>2019-09-15T13:38:29Z</time>
      </trkpt>
      <trkpt lat="48.5559" lon="2.54525">
        <ele>40.99</ele>
        <time>2019-09-15T13:38:35Z</time>
      </trkpt>
      <trkpt lat="48.55601" lon="2.54461">
        <ele>41.95</ele>
        <time>2019-09-15T13:38:43Z</time>
      </trkpt>
      <trkpt lat="48.55611" lon="2.54414">
        <ele>41.47</ele>
        <time>2019-09-15T13:38:49Z</time>
      </trkpt>
      <trkpt lat="48.55599" lon="2.54384">
        <ele>40.51</ele>
        <time>2019-09-15T13:38:54Z</time>
      </trkpt>
      <trkpt lat="48.55585" lon="2.54373">
        <ele>39.55</ele>
        <time>2019-09-15T13:38:57Z</time>
      </trkpt>
      <trkpt lat="48.55539" lon="2.54341">
        <ele>39.55</ele>
        <time>2019-09-15T13:39:07Z</time>
      </trkpt>
      <trkpt lat="48.55513" lon="2.54317">
        <ele>40.99</ele>
        <time>2019-09-15T13:39:15Z</time>
      </trkpt>
      <trkpt lat="48.55504" lon="2.54296">
        <ele>41.47</ele>
        <time>2019-09-15T13:39:21Z</time>
      </trkpt>
      <trkpt lat="48.55473" lon="2.54279">
        <ele>38.59</ele>
        <time>2019-09-15T13:39:26Z</time>
      </trkpt>
      <trkpt lat="48.55428" lon="2.54238">
        <ele>37.15</ele>
        <time>2019-09-15T13:39:35Z</time>
      </trkpt>
      <trkpt lat="48.55405" lon="2.54212">
        <ele>38.11</ele>
        <time>2019-09-15T13:39:41Z</time>
      </trkpt>
      <trkpt lat="48.55377" lon="2.54182">
        <ele>38.11</ele>
        <time>2019-09-15T13:39:48Z</time>
      </trkpt>
      <trkpt lat="48.5536" lon="2.54169">
        <ele>37.63</ele>
        <time>2019-09-15T13:39:52Z</time>
      </trkpt>
      <trkpt lat="48.55348" lon="2.54158">
        <ele>37.63</ele>
        <time>2019-09-15T13:39:55Z</time>
      </trkpt>
      <trkpt lat="48.55339" lon="2.54146">
        <ele>37.63</ele>
        <time>2019-09-15T13:39:58Z</time>
      </trkpt>
      <trkpt lat="48.55331" lon="2.54154">
        <ele>37.63</ele>
        <time>2019-09-15T13:40:03Z</time>
      </trkpt>
      <trkpt lat="48.55331" lon="2.54165">
        <ele>37.63</ele>
        <time>2019-09-15T13:40:05Z</time>
      </trkpt>
      <trkpt lat="48.55332" lon="2.5419">
        <ele>38.59</ele>
        <time>2019-09-15T13:40:09Z</time>
      </trkpt>
      <trkpt lat="48.55335" lon="2.54214">
        <ele>38.59</ele>
        <time>2019-09-15T13:40:13Z</time>
      </trkpt>
      <trkpt lat="48.55327" lon="2.54228">
        <ele>38.59</ele>
        <time>2019-09-15T13:40:20Z</time>
      </trkpt>
      <trkpt lat="48.55326" lon="2.54228">
        <ele>38.59</ele>
        <time>2019-09-15T13:40:21Z</time>
      </trkpt>
      <trkpt lat="48.55316" lon="2.54224">
        <ele>38.11</ele>
        <time>2019-09-15T13:40:29Z</time>
      </trkpt>
      <trkpt lat="48.55307" lon="2.54216">
        <ele>38.59</ele>
        <time>2019-09-15T13:40:37Z</time>
      </trkpt>
      <trkpt lat="48.55302" lon="2.54214">
        <ele>39.07</ele>
        <time>2019-09-15T13:40:41Z</time>
      </trkpt>
      <trkpt lat="48.55291" lon="2.542">
        <ele>38.59</ele>
        <time>2019-09-15T13:40:48Z</time>
      </trkpt>
      <trkpt lat="48.55256" lon="2.54177">
        <ele>43.4</ele>
        <time>2019-09-15T13:40:59Z</time>
      </trkpt>
      <trkpt lat="48.55222" lon="2.5416">
        <ele>46.76</ele>
        <time>2019-09-15T13:41:09Z</time>
      </trkpt>
      <trkpt lat="48.55188" lon="2.54138">
        <ele>48.68</ele>
        <time>2019-09-15T13:41:19Z</time>
      </trkpt>
      <trkpt lat="48.55146" lon="2.54114">
        <ele>48.2</ele>
        <time>2019-09-15T13:41:31Z</time>
      </trkpt>
      <trkpt lat="48.55131" lon="2.54109">
        <ele>48.68</ele>
        <time>2019-09-15T13:41:35Z</time>
      </trkpt>
      <trkpt lat="48.551" lon="2.54096">
        <ele>49.16</ele>
        <time>2019-09-15T13:41:42Z</time>
      </trkpt>
      <trkpt lat="48.55088" lon="2.54078">
        <ele>49.65</ele>
        <time>2019-09-15T13:41:46Z</time>
      </trkpt>
      <trkpt lat="48.55073" lon="2.54004">
        <ele>49.16</ele>
        <time>2019-09-15T13:41:57Z</time>
      </trkpt>
      <trkpt lat="48.55067" lon="2.53968">
        <ele>46.76</ele>
        <time>2019-09-15T13:42:02Z</time>
      </trkpt>
      <trkpt lat="48.55065" lon="2.53954">
        <ele>45.8</ele>
        <time>2019-09-15T13:42:04Z</time>
      </trkpt>
      <trkpt lat="48.5506" lon="2.53921">
        <ele>45.32</ele>
        <time>2019-09-15T13:42:08Z</time>
      </trkpt>
      <trkpt lat="48.55049" lon="2.53893">
        <ele>44.36</ele>
        <time>2019-09-15T13:42:12Z</time>
      </trkpt>
      <trkpt lat="48.55021" lon="2.53866">
        <ele>44.84</ele>
        <time>2019-09-15T13:42:18Z</time>
      </trkpt>
      <trkpt lat="48.54998" lon="2.53846">
        <ele>44.84</ele>
        <time>2019-09-15T13:42:23Z</time>
      </trkpt>
      <trkpt lat="48.54985" lon="2.53834">
        <ele>45.8</ele>
        <time>2019-09-15T13:42:26Z</time>
      </trkpt>
      <trkpt lat="48.5496" lon="2.5381">
        <ele>46.76</ele>
        <time>2019-09-15T13:42:32Z</time>
      </trkpt>
      <trkpt lat="48.5495" lon="2.53801">
        <ele>47.24</ele>
        <time>2019-09-15T13:42:34Z</time>
      </trkpt>
      <trkpt lat="48.5492" lon="2.53771">
        <ele>48.68</ele>
        <time>2019-09-15T13:42:41Z</time>
      </trkpt>
      <trkpt lat="48.54871" lon="2.53726">
        <ele>48.68</ele>
        <time>2019-09-15T13:42:52Z</time>
      </trkpt>
      <trkpt lat="48.54848" lon="2.53704">
        <ele>48.2</ele>
        <time>2019-09-15T13:42:57Z</time>
      </trkpt>
      <trkpt lat="48.5484" lon="2.53694">
        <ele>48.2</ele>
        <time>2019-09-15T13:42:59Z</time>
      </trkpt>
      <trkpt lat="48.54805" lon="2.53698">
        <ele>46.76</ele>
        <time>2019-09-15T13:43:07Z</time>
      </trkpt>
      <trkpt lat="48.5479" lon="2.53715">
        <ele>46.28</ele>
        <time>2019-09-15T13:43:11Z</time>
      </trkpt>
      <trkpt lat="48.54766" lon="2.53738">
        <ele>44.84</ele>
        <time>2019-09-15T13:43:17Z</time>
      </trkpt>
      <trkpt lat="48.54758" lon="2.53745">
        <ele>44.36</ele>
        <time>2019-09-15T13:43:19Z</time>
      </trkpt>
      <trkpt lat="48.54739" lon="2.53767">
        <ele>43.88</ele>
        <time>2019-09-15T13:43:24Z</time>
      </trkpt>
      <trkpt lat="48.54727" lon="2.53778">
        <ele>43.88</ele>
        <time>2019-09-15T13:43:27Z</time>
      </trkpt>
      <trkpt lat="48.54716" lon="2.53789">
        <ele>43.4</ele>
        <time>2019-09-15T13:43:30Z</time>
      </trkpt>
      <trkpt lat="48.54703" lon="2.53803">
        <ele>42.92</ele>
        <time>2019-09-15T13:43:33Z</time>
      </trkpt>
      <trkpt lat="48.54681" lon="2.5383">
        <ele>42.44</ele>
        <time>2019-09-15T13:43:39Z</time>
      </trkpt>
      <trkpt lat="48.54664" lon="2.53823">
        <ele>43.4</ele>
        <time>2019-09-15T13:43:44Z</time>
      </trkpt>
      <trkpt lat="48.54655" lon="2.53795">
        <ele>43.4</ele>
        <time>2019-09-15T13:43:48Z</time>
      </trkpt>
      <trkpt lat="48.54649" lon="2.53763">
        <ele>42.92</ele>
        <time>2019-09-15T13:43:52Z</time>
      </trkpt>
      <trkpt lat="48.54642" lon="2.53734">
        <ele>42.44</ele>
        <time>2019-09-15T13:43:56Z</time>
      </trkpt>
      <trkpt lat="48.54629" lon="2.53708">
        <ele>41.47</ele>
        <time>2019-09-15T13:44:00Z</time>
      </trkpt>
      <trkpt lat="48.54619" lon="2.53672">
        <ele>40.51</ele>
        <time>2019-09-15T13:44:05Z</time>
      </trkpt>
      <trkpt lat="48.54619" lon="2.53635">
        <ele>40.03</ele>
        <time>2019-09-15T13:44:10Z</time>
      </trkpt>
      <trkpt lat="48.54614" lon="2.53612">
        <ele>39.55</ele>
        <time>2019-09-15T13:44:13Z</time>
      </trkpt>
      <trkpt lat="48.54587" lon="2.53474">
        <ele>38.11</ele>
        <time>2019-09-15T13:44:27Z</time>
      </trkpt>
      <trkpt lat="48.5457" lon="2.53441">
        <ele>37.63</ele>
        <time>2019-09-15T13:44:34Z</time>
      </trkpt>
      <trkpt lat="48.54565" lon="2.53447">
        <ele>37.63</ele>
        <time>2019-09-15T13:44:36Z</time>
      </trkpt>
      <trkpt lat="48.54547" lon="2.53467">
        <ele>37.15</ele>
        <time>2019-09-15T13:44:41Z</time>
      </trkpt>
      <trkpt lat="48.54514" lon="2.53508">
        <ele>35.71</ele>
        <time>2019-09-15T13:44:50Z</time>
      </trkpt>
      <trkpt lat="48.54474" lon="2.5356">
        <ele>34.74</ele>
        <time>2019-09-15T13:45:02Z</time>
      </trkpt>
      <trkpt lat="48.5446" lon="2.53578">
        <ele>34.74</ele>
        <time>2019-09-15T13:45:06Z</time>
      </trkpt>
      <trkpt lat="48.54443" lon="2.53598">
        <ele>35.23</ele>
        <time>2019-09-15T13:45:11Z</time>
      </trkpt>
      <trkpt lat="48.54433" lon="2.5361">
        <ele>35.23</ele>
        <time>2019-09-15T13:45:14Z</time>
      </trkpt>
      <trkpt lat="48.54396" lon="2.53656">
        <ele>36.19</ele>
        <time>2019-09-15T13:45:25Z</time>
      </trkpt>
      <trkpt lat="48.54389" lon="2.53671">
        <ele>37.15</ele>
        <time>2019-09-15T13:45:28Z</time>
      </trkpt>
      <trkpt lat="48.54365" lon="2.53666">
        <ele>38.59</ele>
        <time>2019-09-15T13:45:35Z</time>
      </trkpt>
      <trkpt lat="48.54299" lon="2.53633">
        <ele>36.67</ele>
        <time>2019-09-15T13:45:46Z</time>
      </trkpt>
      <trkpt lat="48.5427" lon="2.5361">
        <ele>33.3</ele>
        <time>2019-09-15T13:45:54Z</time>
      </trkpt>
      <trkpt lat="48.54266" lon="2.53605">
        <ele>32.34</ele>
        <time>2019-09-15T13:46:08Z</time>
      </trkpt>
      <trkpt lat="48.54265" lon="2.53599">
        <ele>31.38</ele>
        <time>2019-09-15T13:46:21Z</time>
      </trkpt>
      <trkpt lat="48.54265" lon="2.53598">
        <ele>31.38</ele>
        <time>2019-09-15T13:46:22Z</time>
      </trkpt>
      <trkpt lat="48.54263" lon="2.53585">
        <ele>29.46</ele>
        <time>2019-09-15T13:46:32Z</time>
      </trkpt>
      <trkpt lat="48.54262" lon="2.53583">
        <ele>29.46</ele>
        <time>2019-09-15T13:46:35Z</time>
      </trkpt>
      <trkpt lat="48.54264" lon="2.53555">
        <ele>30.42</ele>
        <time>2019-09-15T13:46:42Z</time>
      </trkpt>
      <trkpt lat="48.54276" lon="2.53537">
        <ele>31.38</ele>
        <time>2019-09-15T13:46:46Z</time>
      </trkpt>
      <trkpt lat="48.54282" lon="2.53527">
        <ele>31.86</ele>
        <time>2019-09-15T13:46:48Z</time>
      </trkpt>
      <trkpt lat="48.54307" lon="2.53491">
        <ele>33.3</ele>
        <time>2019-09-15T13:46:56Z</time>
      </trkpt>
      <trkpt lat="48.54329" lon="2.53461">
        <ele>34.26</ele>
        <time>2019-09-15T13:47:03Z</time>
      </trkpt>
      <trkpt lat="48.54356" lon="2.5343">
        <ele>33.78</ele>
        <time>2019-09-15T13:47:11Z</time>
      </trkpt>
      <trkpt lat="48.54366" lon="2.53416">
        <ele>33.78</ele>
        <time>2019-09-15T13:47:14Z</time>
      </trkpt>
      <trkpt lat="48.5438" lon="2.534">
        <ele>34.26</ele>
        <time>2019-09-15T13:47:18Z</time>
      </trkpt>
      <trkpt lat="48.54402" lon="2.53379">
        <ele>33.78</ele>
        <time>2019-09-15T13:47:24Z</time>
      </trkpt>
      <trkpt lat="48.54436" lon="2.53349">
        <ele>33.78</ele>
        <time>2019-09-15T13:47:33Z</time>
      </trkpt>
      <trkpt lat="48.54458" lon="2.5333">
        <ele>33.3</ele>
        <time>2019-09-15T13:47:39Z</time>
      </trkpt>
      <trkpt lat="48.54466" lon="2.53339">
        <ele>34.74</ele>
        <time>2019-09-15T13:47:43Z</time>
      </trkpt>
      <trkpt lat="48.54484" lon="2.53359">
        <ele>37.15</ele>
        <time>2019-09-15T13:47:53Z</time>
      </trkpt>
      <trkpt lat="48.54519" lon="2.53331">
        <ele>37.63</ele>
        <time>2019-09-15T13:48:02Z</time>
      </trkpt>
      <trkpt lat="48.54538" lon="2.53317">
        <ele>37.15</ele>
        <time>2019-09-15T13:48:07Z</time>
      </trkpt>
      <trkpt lat="48.54545" lon="2.53313">
        <ele>37.15</ele>
        <time>2019-09-15T13:48:09Z</time>
      </trkpt>
      <trkpt lat="48.54543" lon="2.53276">
        <ele>35.23</ele>
        <time>2019-09-15T13:48:16Z</time>
      </trkpt>
      <trkpt lat="48.54539" lon="2.53235">
        <ele>35.23</ele>
        <time>2019-09-15T13:48:23Z</time>
      </trkpt>
      <trkpt lat="48.54551" lon="2.53204">
        <ele>36.19</ele>
        <time>2019-09-15T13:48:35Z</time>
      </trkpt>
      <trkpt lat="48.54552" lon="2.53201">
        <ele>36.19</ele>
        <time>2019-09-15T13:48:36Z</time>
      </trkpt>
      <trkpt lat="48.54539" lon="2.53164">
        <ele>36.19</ele>
        <time>2019-09-15T13:48:47Z</time>
      </trkpt>
      <trkpt lat="48.54535" lon="2.53137">
        <ele>35.23</ele>
        <time>2019-09-15T13:48:57Z</time>
      </trkpt>
      <trkpt lat="48.5452" lon="2.53142">
        <ele>34.74</ele>
        <time>2019-09-15T13:49:05Z</time>
      </trkpt>
      <trkpt lat="48.54491" lon="2.53159">
        <ele>33.78</ele>
        <time>2019-09-15T13:49:15Z</time>
      </trkpt>
      <trkpt lat="48.54489" lon="2.53161">
        <ele>33.78</ele>
        <time>2019-09-15T13:49:16Z</time>
      </trkpt>
      <trkpt lat="48.54483" lon="2.53161">
        <ele>34.74</ele>
        <time>2019-09-15T13:49:20Z</time>
      </trkpt>
      <trkpt lat="48.5445" lon="2.53171">
        <ele>39.07</ele>
        <time>2019-09-15T13:49:34Z</time>
      </trkpt>
      <trkpt lat="48.54436" lon="2.53179">
        <ele>40.03</ele>
        <time>2019-09-15T13:49:38Z</time>
      </trkpt>
      <trkpt lat="48.54411" lon="2.53193">
        <ele>39.55</ele>
        <time>2019-09-15T13:49:44Z</time>
      </trkpt>
      <trkpt lat="48.54395" lon="2.53204">
        <ele>39.07</ele>
        <time>2019-09-15T13:49:48Z</time>
      </trkpt>
      <trkpt lat="48.54378" lon="2.53221">
        <ele>37.15</ele>
        <time>2019-09-15T13:49:52Z</time>
      </trkpt>
      <trkpt lat="48.5434" lon="2.53247">
        <ele>35.23</ele>
        <time>2019-09-15T13:50:02Z</time>
      </trkpt>
      <trkpt lat="48.54306" lon="2.53285">
        <ele>33.3</ele>
        <time>2019-09-15T13:50:12Z</time>
      </trkpt>
      <trkpt lat="48.54285" lon="2.5331">
        <ele>36.67</ele>
        <time>2019-09-15T13:50:22Z</time>
      </trkpt>
      <trkpt lat="48.54249" lon="2.53354">
        <ele>35.23</ele>
        <time>2019-09-15T13:50:33Z</time>
      </trkpt>
      <trkpt lat="48.54226" lon="2.53388">
        <ele>34.26</ele>
        <time>2019-09-15T13:50:40Z</time>
      </trkpt>
      <trkpt lat="48.54219" lon="2.53397">
        <ele>33.78</ele>
        <time>2019-09-15T13:50:42Z</time>
      </trkpt>
      <trkpt lat="48.54184" lon="2.53451">
        <ele>30.9</ele>
        <time>2019-09-15T13:50:53Z</time>
      </trkpt>
      <trkpt lat="48.54178" lon="2.53462">
        <ele>29.94</ele>
        <time>2019-09-15T13:50:55Z</time>
      </trkpt>
      <trkpt lat="48.54144" lon="2.53518">
        <ele>24.65</ele>
        <time>2019-09-15T13:51:06Z</time>
      </trkpt>
      <trkpt lat="48.54112" lon="2.53571">
        <ele>20.32</ele>
        <time>2019-09-15T13:51:18Z</time>
      </trkpt>
      <trkpt lat="48.54111" lon="2.53575">
        <ele>19.84</ele>
        <time>2019-09-15T13:51:19Z</time>
      </trkpt>
      <trkpt lat="48.54081" lon="2.53636">
        <ele>16</ele>
        <time>2019-09-15T13:51:30Z</time>
      </trkpt>
      <trkpt lat="48.54061" lon="2.5368">
        <ele>18.88</ele>
        <time>2019-09-15T13:51:40Z</time>
      </trkpt>
      <trkpt lat="48.54041" lon="2.53742">
        <ele>25.13</ele>
        <time>2019-09-15T13:51:51Z</time>
      </trkpt>
      <trkpt lat="48.54024" lon="2.53797">
        <ele>28.02</ele>
        <time>2019-09-15T13:52:01Z</time>
      </trkpt>
      <trkpt lat="48.54018" lon="2.53835">
        <ele>29.46</ele>
        <time>2019-09-15T13:52:09Z</time>
      </trkpt>
      <trkpt lat="48.54024" lon="2.53842">
        <ele>29.94</ele>
        <time>2019-09-15T13:52:21Z</time>
      </trkpt>
      <trkpt lat="48.54025" lon="2.53843">
        <ele>30.9</ele>
        <time>2019-09-15T13:52:46Z</time>
      </trkpt>
      <trkpt lat="48.54026" lon="2.53843">
        <ele>33.3</ele>
        <time>2019-09-15T13:53:12Z</time>
      </trkpt>
      <trkpt lat="48.54026" lon="2.53844">
        <ele>33.78</ele>
        <time>2019-09-15T13:53:26Z</time>
      </trkpt>
      <trkpt lat="48.54026" lon="2.53844">
        <ele>33.3</ele>
        <time>2019-09-15T13:53:50Z</time>
      </trkpt>
      <trkpt lat="48.54027" lon="2.53842">
        <ele>34.26</ele>
        <time>2019-09-15T13:54:25Z</time>
      </trkpt>
      <trkpt lat="48.54028" lon="2.53839">
        <ele>34.26</ele>
        <time>2019-09-15T13:54:38Z</time>
      </trkpt>
      <trkpt lat="48.54044" lon="2.53831">
        <ele>32.34</ele>
        <time>2019-09-15T13:54:48Z</time>
      </trkpt>
      <trkpt lat="48.5408" lon="2.5386">
        <ele>29.94</ele>
        <time>2019-09-15T13:54:59Z</time>
      </trkpt>
      <trkpt lat="48.54099" lon="2.53873">
        <ele>28.5</ele>
        <time>2019-09-15T13:55:03Z</time>
      </trkpt>
      <trkpt lat="48.54121" lon="2.5389">
        <ele>27.53</ele>
        <time>2019-09-15T13:55:08Z</time>
      </trkpt>
      <trkpt lat="48.54132" lon="2.53933">
        <ele>26.09</ele>
        <time>2019-09-15T13:55:18Z</time>
      </trkpt>
      <trkpt lat="48.5413" lon="2.53947">
        <ele>25.61</ele>
        <time>2019-09-15T13:55:21Z</time>
      </trkpt>
      <trkpt lat="48.5413" lon="2.53974">
        <ele>25.61</ele>
        <time>2019-09-15T13:55:27Z</time>
      </trkpt>
      <trkpt lat="48.54127" lon="2.54019">
        <ele>27.05</ele>
        <time>2019-09-15T13:55:41Z</time>
      </trkpt>
      <trkpt lat="48.54121" lon="2.54065">
        <ele>30.42</ele>
        <time>2019-09-15T13:55:57Z</time>
      </trkpt>
      <trkpt lat="48.54118" lon="2.541">
        <ele>33.3</ele>
        <time>2019-09-15T13:56:11Z</time>
      </trkpt>
      <trkpt lat="48.54114" lon="2.5413">
        <ele>39.07</ele>
        <time>2019-09-15T13:56:19Z</time>
      </trkpt>
      <trkpt lat="48.54131" lon="2.54164">
        <ele>45.32</ele>
        <time>2019-09-15T13:56:35Z</time>
      </trkpt>
      <trkpt lat="48.54133" lon="2.54165">
        <ele>45.32</ele>
        <time>2019-09-15T13:56:36Z</time>
      </trkpt>
      <trkpt lat="48.54175" lon="2.54184">
        <ele>43.4</ele>
        <time>2019-09-15T13:56:50Z</time>
      </trkpt>
      <trkpt lat="48.54218" lon="2.54208">
        <ele>44.36</ele>
        <time>2019-09-15T13:57:02Z</time>
      </trkpt>
      <trkpt lat="48.54249" lon="2.54239">
        <ele>43.88</ele>
        <time>2019-09-15T13:57:14Z</time>
      </trkpt>
      <trkpt lat="48.54245" lon="2.54289">
        <ele>42.92</ele>
        <time>2019-09-15T13:57:25Z</time>
      </trkpt>
      <trkpt lat="48.54236" lon="2.54342">
        <ele>42.44</ele>
        <time>2019-09-15T13:57:35Z</time>
      </trkpt>
      <trkpt lat="48.54218" lon="2.5443">
        <ele>43.88</ele>
        <time>2019-09-15T13:57:47Z</time>
      </trkpt>
      <trkpt lat="48.54204" lon="2.54508">
        <ele>47.72</ele>
        <time>2019-09-15T13:57:57Z</time>
      </trkpt>
      <trkpt lat="48.54194" lon="2.54562">
        <ele>51.09</ele>
        <time>2019-09-15T13:58:04Z</time>
      </trkpt>
      <trkpt lat="48.54179" lon="2.54655">
        <ele>57.82</ele>
        <time>2019-09-15T13:58:18Z</time>
      </trkpt>
      <trkpt lat="48.54177" lon="2.54673">
        <ele>59.26</ele>
        <time>2019-09-15T13:58:21Z</time>
      </trkpt>
      <trkpt lat="48.54164" lon="2.54725">
        <ele>62.62</ele>
        <time>2019-09-15T13:58:29Z</time>
      </trkpt>
      <trkpt lat="48.54158" lon="2.54758">
        <ele>65.03</ele>
        <time>2019-09-15T13:58:34Z</time>
      </trkpt>
      <trkpt lat="48.54144" lon="2.54829">
        <ele>69.83</ele>
        <time>2019-09-15T13:58:44Z</time>
      </trkpt>
      <trkpt lat="48.54128" lon="2.54905">
        <ele>72.24</ele>
        <time>2019-09-15T13:58:55Z</time>
      </trkpt>
      <trkpt lat="48.54121" lon="2.5495">
        <ele>69.35</ele>
        <time>2019-09-15T13:59:07Z</time>
      </trkpt>
      <trkpt lat="48.54119" lon="2.54954">
        <ele>69.83</ele>
        <time>2019-09-15T13:59:09Z</time>
      </trkpt>
      <trkpt lat="48.54105" lon="2.54964">
        <ele>64.55</ele>
        <time>2019-09-15T13:59:17Z</time>
      </trkpt>
      <trkpt lat="48.5411" lon="2.54987">
        <ele>62.14</ele>
        <time>2019-09-15T13:59:26Z</time>
      </trkpt>
      <trkpt lat="48.54146" lon="2.55012">
        <ele>59.74</ele>
        <time>2019-09-15T13:59:39Z</time>
      </trkpt>
      <trkpt lat="48.54193" lon="2.55052">
        <ele>59.26</ele>
        <time>2019-09-15T13:59:53Z</time>
      </trkpt>
      <trkpt lat="48.54239" lon="2.55094">
        <ele>63.58</ele>
        <time>2019-09-15T14:00:06Z</time>
      </trkpt>
      <trkpt lat="48.54258" lon="2.5511">
        <ele>65.03</ele>
        <time>2019-09-15T14:00:11Z</time>
      </trkpt>
      <trkpt lat="48.54276" lon="2.55127">
        <ele>65.99</ele>
        <time>2019-09-15T14:00:16Z</time>
      </trkpt>
      <trkpt lat="48.5431" lon="2.55133">
        <ele>67.91</ele>
        <time>2019-09-15T14:00:23Z</time>
      </trkpt>
      <trkpt lat="48.54342" lon="2.55131">
        <ele>69.35</ele>
        <time>2019-09-15T14:00:29Z</time>
      </trkpt>
      <trkpt lat="48.54425" lon="2.55095">
        <ele>72.24</ele>
        <time>2019-09-15T14:00:44Z</time>
      </trkpt>
      <trkpt lat="48.54511" lon="2.5506">
        <ele>77.04</ele>
        <time>2019-09-15T14:00:59Z</time>
      </trkpt>
      <trkpt lat="48.54538" lon="2.5505">
        <ele>78</ele>
        <time>2019-09-15T14:01:04Z</time>
      </trkpt>
      <trkpt lat="48.5461" lon="2.55016">
        <ele>78.48</ele>
        <time>2019-09-15T14:01:16Z</time>
      </trkpt>
      <trkpt lat="48.54693" lon="2.54986">
        <ele>79.93</ele>
        <time>2019-09-15T14:01:29Z</time>
      </trkpt>
      <trkpt lat="48.54766" lon="2.54956">
        <ele>82.33</ele>
        <time>2019-09-15T14:01:42Z</time>
      </trkpt>
      <trkpt lat="48.54772" lon="2.54953">
        <ele>82.33</ele>
        <time>2019-09-15T14:01:43Z</time>
      </trkpt>
      <trkpt lat="48.54856" lon="2.54922">
        <ele>84.73</ele>
        <time>2019-09-15T14:01:57Z</time>
      </trkpt>
      <trkpt lat="48.54953" lon="2.5489">
        <ele>85.69</ele>
        <time>2019-09-15T14:02:10Z</time>
      </trkpt>
      <trkpt lat="48.55054" lon="2.54848">
        <ele>83.77</ele>
        <time>2019-09-15T14:02:24Z</time>
      </trkpt>
      <trkpt lat="48.55141" lon="2.54811">
        <ele>83.29</ele>
        <time>2019-09-15T14:02:37Z</time>
      </trkpt>
      <trkpt lat="48.55205" lon="2.54787">
        <ele>82.33</ele>
        <time>2019-09-15T14:02:47Z</time>
      </trkpt>
      <trkpt lat="48.55248" lon="2.54826">
        <ele>74.16</ele>
        <time>2019-09-15T14:02:55Z</time>
      </trkpt>
      <trkpt lat="48.55253" lon="2.54842">
        <ele>72.24</ele>
        <time>2019-09-15T14:02:57Z</time>
      </trkpt>
      <trkpt lat="48.55255" lon="2.54913">
        <ele>71.76</ele>
        <time>2019-09-15T14:03:11Z</time>
      </trkpt>
      <trkpt lat="48.55249" lon="2.54961">
        <ele>71.76</ele>
        <time>2019-09-15T14:03:25Z</time>
      </trkpt>
      <trkpt lat="48.55245" lon="2.55004">
        <ele>73.68</ele>
        <time>2019-09-15T14:03:37Z</time>
      </trkpt>
      <trkpt lat="48.55239" lon="2.55054">
        <ele>75.12</ele>
        <time>2019-09-15T14:03:50Z</time>
      </trkpt>
      <trkpt lat="48.55235" lon="2.55106">
        <ele>74.16</ele>
        <time>2019-09-15T14:04:01Z</time>
      </trkpt>
      <trkpt lat="48.55229" lon="2.55166">
        <ele>76.56</ele>
        <time>2019-09-15T14:04:14Z</time>
      </trkpt>
      <trkpt lat="48.55224" lon="2.55239">
        <ele>78.97</ele>
        <time>2019-09-15T14:04:30Z</time>
      </trkpt>
      <trkpt lat="48.55219" lon="2.5531">
        <ele>81.37</ele>
        <time>2019-09-15T14:04:45Z</time>
      </trkpt>
      <trkpt lat="48.55213" lon="2.5539">
        <ele>85.21</ele>
        <time>2019-09-15T14:05:02Z</time>
      </trkpt>
      <trkpt lat="48.55211" lon="2.5546">
        <ele>88.58</ele>
        <time>2019-09-15T14:05:15Z</time>
      </trkpt>
      <trkpt lat="48.55211" lon="2.55534">
        <ele>91.94</ele>
        <time>2019-09-15T14:05:28Z</time>
      </trkpt>
      <trkpt lat="48.55218" lon="2.5559">
        <ele>91.46</ele>
        <time>2019-09-15T14:05:37Z</time>
      </trkpt>
      <trkpt lat="48.55227" lon="2.55648">
        <ele>91.46</ele>
        <time>2019-09-15T14:05:46Z</time>
      </trkpt>
      <trkpt lat="48.55232" lon="2.55675">
        <ele>91.46</ele>
        <time>2019-09-15T14:05:50Z</time>
      </trkpt>
      <trkpt lat="48.55244" lon="2.55765">
        <ele>90.5</ele>
        <time>2019-09-15T14:06:03Z</time>
      </trkpt>
      <trkpt lat="48.55257" lon="2.55862">
        <ele>86.66</ele>
        <time>2019-09-15T14:06:18Z</time>
      </trkpt>
      <trkpt lat="48.55273" lon="2.5588">
        <ele>83.29</ele>
        <time>2019-09-15T14:06:26Z</time>
      </trkpt>
      <trkpt lat="48.55288" lon="2.55976">
        <ele>78.97</ele>
        <time>2019-09-15T14:06:40Z</time>
      </trkpt>
      <trkpt lat="48.55291" lon="2.55999">
        <ele>78</ele>
        <time>2019-09-15T14:06:43Z</time>
      </trkpt>
      <trkpt lat="48.55303" lon="2.56061">
        <ele>75.12</ele>
        <time>2019-09-15T14:06:51Z</time>
      </trkpt>
      <trkpt lat="48.55325" lon="2.56165">
        <ele>71.27</ele>
        <time>2019-09-15T14:07:04Z</time>
      </trkpt>
      <trkpt lat="48.55348" lon="2.56269">
        <ele>68.87</ele>
        <time>2019-09-15T14:07:17Z</time>
      </trkpt>
      <trkpt lat="48.55373" lon="2.5639">
        <ele>68.87</ele>
        <time>2019-09-15T14:07:30Z</time>
      </trkpt>
      <trkpt lat="48.55396" lon="2.56508">
        <ele>70.79</ele>
        <time>2019-09-15T14:07:46Z</time>
      </trkpt>
      <trkpt lat="48.55413" lon="2.56605">
        <ele>72.24</ele>
        <time>2019-09-15T14:07:57Z</time>
      </trkpt>
      <trkpt lat="48.5543" lon="2.56692">
        <ele>76.08</ele>
        <time>2019-09-15T14:08:11Z</time>
      </trkpt>
      <trkpt lat="48.55432" lon="2.56702">
        <ele>77.04</ele>
        <time>2019-09-15T14:08:14Z</time>
      </trkpt>
      <trkpt lat="48.55417" lon="2.56709">
        <ele>78.48</ele>
        <time>2019-09-15T14:08:23Z</time>
      </trkpt>
      <trkpt lat="48.55415" lon="2.56708">
        <ele>78.48</ele>
        <time>2019-09-15T14:08:24Z</time>
      </trkpt>
      <trkpt lat="48.55373" lon="2.56704">
        <ele>78.97</ele>
        <time>2019-09-15T14:08:37Z</time>
      </trkpt>
      <trkpt lat="48.55326" lon="2.56721">
        <ele>78</ele>
        <time>2019-09-15T14:08:48Z</time>
      </trkpt>
      <trkpt lat="48.55282" lon="2.56732">
        <ele>76.56</ele>
        <time>2019-09-15T14:08:58Z</time>
      </trkpt>
      <trkpt lat="48.55237" lon="2.5674">
        <ele>74.64</ele>
        <time>2019-09-15T14:09:09Z</time>
      </trkpt>
      <trkpt lat="48.55229" lon="2.56743">
        <ele>74.16</ele>
        <time>2019-09-15T14:09:11Z</time>
      </trkpt>
      <trkpt lat="48.55209" lon="2.56748">
        <ele>72.72</ele>
        <time>2019-09-15T14:09:15Z</time>
      </trkpt>
      <trkpt lat="48.5519" lon="2.56751">
        <ele>72.24</ele>
        <time>2019-09-15T14:09:19Z</time>
      </trkpt>
      <trkpt lat="48.5516" lon="2.56761">
        <ele>71.27</ele>
        <time>2019-09-15T14:09:24Z</time>
      </trkpt>
      <trkpt lat="48.55102" lon="2.56794">
        <ele>68.87</ele>
        <time>2019-09-15T14:09:37Z</time>
      </trkpt>
      <trkpt lat="48.55093" lon="2.5681">
        <ele>71.76</ele>
        <time>2019-09-15T14:09:48Z</time>
      </trkpt>
      <trkpt lat="48.5509" lon="2.56815">
        <ele>73.2</ele>
        <time>2019-09-15T14:10:09Z</time>
      </trkpt>
      <trkpt lat="48.55087" lon="2.56816">
        <ele>78.48</ele>
        <time>2019-09-15T14:10:35Z</time>
      </trkpt>
      <trkpt lat="48.55086" lon="2.56816">
        <ele>78</ele>
        <time>2019-09-15T14:10:58Z</time>
      </trkpt>
      <trkpt lat="48.55072" lon="2.56828">
        <ele>77.04</ele>
        <time>2019-09-15T14:11:08Z</time>
      </trkpt>
      <trkpt lat="48.5504" lon="2.56862">
        <ele>77.52</ele>
        <time>2019-09-15T14:11:18Z</time>
      </trkpt>
      <trkpt lat="48.55014" lon="2.56897">
        <ele>80.41</ele>
        <time>2019-09-15T14:11:29Z</time>
      </trkpt>
      <trkpt lat="48.55028" lon="2.56925">
        <ele>82.33</ele>
        <time>2019-09-15T14:11:38Z</time>
      </trkpt>
      <trkpt lat="48.5505" lon="2.5696">
        <ele>83.29</ele>
        <time>2019-09-15T14:11:45Z</time>
      </trkpt>
      <trkpt lat="48.55063" lon="2.56983">
        <ele>84.73</ele>
        <time>2019-09-15T14:11:49Z</time>
      </trkpt>
      <trkpt lat="48.55116" lon="2.57077">
        <ele>85.69</ele>
        <time>2019-09-15T14:12:05Z</time>
      </trkpt>
      <trkpt lat="48.55126" lon="2.57094">
        <ele>85.21</ele>
        <time>2019-09-15T14:12:08Z</time>
      </trkpt>
      <trkpt lat="48.55144" lon="2.57125">
        <ele>84.25</ele>
        <time>2019-09-15T14:12:13Z</time>
      </trkpt>
      <trkpt lat="48.55161" lon="2.57156">
        <ele>82.81</ele>
        <time>2019-09-15T14:12:18Z</time>
      </trkpt>
      <trkpt lat="48.55167" lon="2.57169">
        <ele>82.33</ele>
        <time>2019-09-15T14:12:20Z</time>
      </trkpt>
      <trkpt lat="48.55205" lon="2.57232">
        <ele>80.41</ele>
        <time>2019-09-15T14:12:31Z</time>
      </trkpt>
      <trkpt lat="48.55245" lon="2.57298">
        <ele>79.45</ele>
        <time>2019-09-15T14:12:42Z</time>
      </trkpt>
      <trkpt lat="48.55291" lon="2.57379">
        <ele>75.6</ele>
        <time>2019-09-15T14:12:55Z</time>
      </trkpt>
      <trkpt lat="48.55307" lon="2.57404">
        <ele>75.12</ele>
        <time>2019-09-15T14:12:59Z</time>
      </trkpt>
      <trkpt lat="48.55358" lon="2.57495">
        <ele>72.72</ele>
        <time>2019-09-15T14:13:13Z</time>
      </trkpt>
      <trkpt lat="48.55396" lon="2.57554">
        <ele>69.83</ele>
        <time>2019-09-15T14:13:23Z</time>
      </trkpt>
      <trkpt lat="48.55399" lon="2.57582">
        <ele>70.79</ele>
        <time>2019-09-15T14:13:28Z</time>
      </trkpt>
      <trkpt lat="48.55395" lon="2.57592">
        <ele>71.27</ele>
        <time>2019-09-15T14:13:30Z</time>
      </trkpt>
      <trkpt lat="48.55387" lon="2.57641">
        <ele>71.27</ele>
        <time>2019-09-15T14:13:37Z</time>
      </trkpt>
      <trkpt lat="48.55387" lon="2.57656">
        <ele>71.27</ele>
        <time>2019-09-15T14:13:39Z</time>
      </trkpt>
      <trkpt lat="48.55392" lon="2.57693">
        <ele>71.76</ele>
        <time>2019-09-15T14:13:44Z</time>
      </trkpt>
      <trkpt lat="48.55412" lon="2.5776">
        <ele>75.12</ele>
        <time>2019-09-15T14:13:56Z</time>
      </trkpt>
      <trkpt lat="48.55419" lon="2.57806">
        <ele>76.56</ele>
        <time>2019-09-15T14:14:02Z</time>
      </trkpt>
      <trkpt lat="48.55424" lon="2.5784">
        <ele>77.52</ele>
        <time>2019-09-15T14:14:07Z</time>
      </trkpt>
      <trkpt lat="48.5543" lon="2.57886">
        <ele>78.48</ele>
        <time>2019-09-15T14:14:16Z</time>
      </trkpt>
      <trkpt lat="48.55432" lon="2.5789">
        <ele>78.48</ele>
        <time>2019-09-15T14:14:17Z</time>
      </trkpt>
      <trkpt lat="48.55436" lon="2.579">
        <ele>78</ele>
        <time>2019-09-15T14:14:21Z</time>
      </trkpt>
      <trkpt lat="48.5544" lon="2.57917">
        <ele>77.52</ele>
        <time>2019-09-15T14:14:25Z</time>
      </trkpt>
      <trkpt lat="48.55433" lon="2.58014">
        <ele>75.12</ele>
        <time>2019-09-15T14:14:38Z</time>
      </trkpt>
      <trkpt lat="48.55432" lon="2.58036">
        <ele>74.64</ele>
        <time>2019-09-15T14:14:41Z</time>
      </trkpt>
      <trkpt lat="48.55431" lon="2.58065">
        <ele>74.16</ele>
        <time>2019-09-15T14:14:45Z</time>
      </trkpt>
      <trkpt lat="48.55431" lon="2.5808">
        <ele>74.16</ele>
        <time>2019-09-15T14:14:47Z</time>
      </trkpt>
      <trkpt lat="48.5543" lon="2.58194">
        <ele>75.12</ele>
        <time>2019-09-15T14:15:02Z</time>
      </trkpt>
      <trkpt lat="48.55436" lon="2.58285">
        <ele>78</ele>
        <time>2019-09-15T14:15:13Z</time>
      </trkpt>
      <trkpt lat="48.55439" lon="2.58313">
        <ele>78.48</ele>
        <time>2019-09-15T14:15:17Z</time>
      </trkpt>
      <trkpt lat="48.55443" lon="2.58359">
        <ele>79.93</ele>
        <time>2019-09-15T14:15:23Z</time>
      </trkpt>
      <trkpt lat="48.55442" lon="2.58418">
        <ele>78.97</ele>
        <time>2019-09-15T14:15:32Z</time>
      </trkpt>
      <trkpt lat="48.5541" lon="2.58422">
        <ele>78.48</ele>
        <time>2019-09-15T14:15:40Z</time>
      </trkpt>
      <trkpt lat="48.554" lon="2.5842">
        <ele>78.48</ele>
        <time>2019-09-15T14:15:42Z</time>
      </trkpt>
      <trkpt lat="48.55331" lon="2.5842">
        <ele>81.85</ele>
        <time>2019-09-15T14:15:54Z</time>
      </trkpt>
      <trkpt lat="48.55263" lon="2.58405">
        <ele>85.21</ele>
        <time>2019-09-15T14:16:07Z</time>
      </trkpt>
      <trkpt lat="48.55194" lon="2.58384">
        <ele>85.69</ele>
        <time>2019-09-15T14:16:21Z</time>
      </trkpt>
      <trkpt lat="48.55119" lon="2.58359">
        <ele>85.21</ele>
        <time>2019-09-15T14:16:36Z</time>
      </trkpt>
      <trkpt lat="48.55052" lon="2.58337">
        <ele>84.73</ele>
        <time>2019-09-15T14:16:50Z</time>
      </trkpt>
      <trkpt lat="48.5499" lon="2.58317">
        <ele>85.21</ele>
        <time>2019-09-15T14:17:03Z</time>
      </trkpt>
      <trkpt lat="48.5493" lon="2.58298">
        <ele>84.25</ele>
        <time>2019-09-15T14:17:16Z</time>
      </trkpt>
      <trkpt lat="48.54932" lon="2.58317">
        <ele>85.21</ele>
        <time>2019-09-15T14:17:22Z</time>
      </trkpt>
      <trkpt lat="48.54985" lon="2.58393">
        <ele>79.93</ele>
        <time>2019-09-15T14:17:36Z</time>
      </trkpt>
      <trkpt lat="48.55031" lon="2.5847">
        <ele>77.52</ele>
        <time>2019-09-15T14:17:50Z</time>
      </trkpt>
      <trkpt lat="48.55082" lon="2.58552">
        <ele>76.08</ele>
        <time>2019-09-15T14:18:04Z</time>
      </trkpt>
      <trkpt lat="48.55127" lon="2.58634">
        <ele>76.56</ele>
        <time>2019-09-15T14:18:17Z</time>
      </trkpt>
      <trkpt lat="48.55165" lon="2.58692">
        <ele>75.6</ele>
        <time>2019-09-15T14:18:29Z</time>
      </trkpt>
      <trkpt lat="48.55166" lon="2.58698">
        <ele>75.6</ele>
        <time>2019-09-15T14:18:31Z</time>
      </trkpt>
      <trkpt lat="48.55122" lon="2.58718">
        <ele>72.24</ele>
        <time>2019-09-15T14:18:45Z</time>
      </trkpt>
      <trkpt lat="48.55118" lon="2.58721">
        <ele>71.76</ele>
        <time>2019-09-15T14:18:46Z</time>
      </trkpt>
      <trkpt lat="48.55049" lon="2.58776">
        <ele>67.43</ele>
        <time>2019-09-15T14:19:00Z</time>
      </trkpt>
      <trkpt lat="48.5501" lon="2.58807">
        <ele>65.99</ele>
        <time>2019-09-15T14:19:09Z</time>
      </trkpt>
      <trkpt lat="48.55001" lon="2.58812">
        <ele>65.99</ele>
        <time>2019-09-15T14:19:11Z</time>
      </trkpt>
      <trkpt lat="48.54946" lon="2.58854">
        <ele>67.91</ele>
        <time>2019-09-15T14:19:23Z</time>
      </trkpt>
      <trkpt lat="48.54912" lon="2.58881">
        <ele>69.83</ele>
        <time>2019-09-15T14:19:31Z</time>
      </trkpt>
      <trkpt lat="48.54853" lon="2.58917">
        <ele>68.39</ele>
        <time>2019-09-15T14:19:44Z</time>
      </trkpt>
      <trkpt lat="48.54834" lon="2.5892">
        <ele>67.91</ele>
        <time>2019-09-15T14:19:50Z</time>
      </trkpt>
      <trkpt lat="48.54824" lon="2.5894">
        <ele>67.43</ele>
        <time>2019-09-15T14:19:56Z</time>
      </trkpt>
      <trkpt lat="48.54825" lon="2.58974">
        <ele>66.95</ele>
        <time>2019-09-15T14:20:01Z</time>
      </trkpt>
      <trkpt lat="48.54828" lon="2.5901">
        <ele>66.95</ele>
        <time>2019-09-15T14:20:06Z</time>
      </trkpt>
      <trkpt lat="48.54843" lon="2.59058">
        <ele>66.95</ele>
        <time>2019-09-15T14:20:14Z</time>
      </trkpt>
      <trkpt lat="48.54854" lon="2.59099">
        <ele>69.35</ele>
        <time>2019-09-15T14:20:21Z</time>
      </trkpt>
      <trkpt lat="48.5486" lon="2.59134">
        <ele>69.35</ele>
        <time>2019-09-15T14:20:26Z</time>
      </trkpt>
      <trkpt lat="48.54873" lon="2.59167">
        <ele>68.39</ele>
        <time>2019-09-15T14:20:32Z</time>
      </trkpt>
      <trkpt lat="48.54899" lon="2.59217">
        <ele>67.43</ele>
        <time>2019-09-15T14:20:44Z</time>
      </trkpt>
      <trkpt lat="48.54896" lon="2.5928">
        <ele>72.72</ele>
        <time>2019-09-15T14:20:57Z</time>
      </trkpt>
      <trkpt lat="48.54877" lon="2.59267">
        <ele>76.08</ele>
        <time>2019-09-15T14:21:04Z</time>
      </trkpt>
      <trkpt lat="48.54809" lon="2.59257">
        <ele>75.6</ele>
        <time>2019-09-15T14:21:18Z</time>
      </trkpt>
      <trkpt lat="48.54799" lon="2.59259">
        <ele>75.6</ele>
        <time>2019-09-15T14:21:20Z</time>
      </trkpt>
      <trkpt lat="48.54778" lon="2.59259">
        <ele>75.12</ele>
        <time>2019-09-15T14:21:24Z</time>
      </trkpt>
      <trkpt lat="48.54729" lon="2.59252">
        <ele>75.12</ele>
        <time>2019-09-15T14:21:34Z</time>
      </trkpt>
      <trkpt lat="48.54719" lon="2.59252">
        <ele>75.12</ele>
        <time>2019-09-15T14:21:36Z</time>
      </trkpt>
      <trkpt lat="48.54689" lon="2.59259">
        <ele>75.6</ele>
        <time>2019-09-15T14:21:44Z</time>
      </trkpt>
      <trkpt lat="48.54683" lon="2.59259">
        <ele>76.08</ele>
        <time>2019-09-15T14:21:46Z</time>
      </trkpt>
      <trkpt lat="48.54663" lon="2.59271">
        <ele>78.48</ele>
        <time>2019-09-15T14:21:53Z</time>
      </trkpt>
      <trkpt lat="48.54636" lon="2.59249">
        <ele>81.85</ele>
        <time>2019-09-15T14:22:03Z</time>
      </trkpt>
      <trkpt lat="48.54591" lon="2.59262">
        <ele>85.69</ele>
        <time>2019-09-15T14:22:16Z</time>
      </trkpt>
      <trkpt lat="48.54545" lon="2.59265">
        <ele>88.58</ele>
        <time>2019-09-15T14:22:29Z</time>
      </trkpt>
      <trkpt lat="48.54523" lon="2.59256">
        <ele>89.06</ele>
        <time>2019-09-15T14:22:35Z</time>
      </trkpt>
      <trkpt lat="48.54498" lon="2.59273">
        <ele>89.06</ele>
        <time>2019-09-15T14:22:43Z</time>
      </trkpt>
      <trkpt lat="48.54498" lon="2.5932">
        <ele>89.06</ele>
        <time>2019-09-15T14:22:55Z</time>
      </trkpt>
      <trkpt lat="48.54489" lon="2.59393">
        <ele>92.9</ele>
        <time>2019-09-15T14:23:09Z</time>
      </trkpt>
      <trkpt lat="48.54471" lon="2.59433">
        <ele>95.79</ele>
        <time>2019-09-15T14:23:19Z</time>
      </trkpt>
      <trkpt lat="48.54477" lon="2.59493">
        <ele>94.83</ele>
        <time>2019-09-15T14:23:32Z</time>
      </trkpt>
      <trkpt lat="48.5448" lon="2.59503">
        <ele>94.35</ele>
        <time>2019-09-15T14:23:35Z</time>
      </trkpt>
      <trkpt lat="48.5449" lon="2.59515">
        <ele>93.87</ele>
        <time>2019-09-15T14:23:41Z</time>
      </trkpt>
      <trkpt lat="48.54492" lon="2.59527">
        <ele>94.83</ele>
        <time>2019-09-15T14:23:45Z</time>
      </trkpt>
      <trkpt lat="48.54465" lon="2.59569">
        <ele>91.94</ele>
        <time>2019-09-15T14:23:59Z</time>
      </trkpt>
      <trkpt lat="48.5442" lon="2.59614">
        <ele>94.35</ele>
        <time>2019-09-15T14:24:11Z</time>
      </trkpt>
      <trkpt lat="48.5439" lon="2.59685">
        <ele>95.31</ele>
        <time>2019-09-15T14:24:22Z</time>
      </trkpt>
      <trkpt lat="48.54413" lon="2.59727">
        <ele>89.54</ele>
        <time>2019-09-15T14:24:31Z</time>
      </trkpt>
      <trkpt lat="48.54447" lon="2.59748">
        <ele>86.18</ele>
        <time>2019-09-15T14:24:38Z</time>
      </trkpt>
      <trkpt lat="48.54514" lon="2.59793">
        <ele>84.73</ele>
        <time>2019-09-15T14:24:51Z</time>
      </trkpt>
      <trkpt lat="48.54522" lon="2.598">
        <ele>84.25</ele>
        <time>2019-09-15T14:24:53Z</time>
      </trkpt>
      <trkpt lat="48.54527" lon="2.59799">
        <ele>83.77</ele>
        <time>2019-09-15T14:24:56Z</time>
      </trkpt>
      <trkpt lat="48.54492" lon="2.59789">
        <ele>80.41</ele>
        <time>2019-09-15T14:25:08Z</time>
      </trkpt>
      <trkpt lat="48.54489" lon="2.59789">
        <ele>80.41</ele>
        <time>2019-09-15T14:25:11Z</time>
      </trkpt>
      <trkpt lat="48.54493" lon="2.59797">
        <ele>79.93</ele>
        <time>2019-09-15T14:25:16Z</time>
      </trkpt>
      <trkpt lat="48.54488" lon="2.5985">
        <ele>79.45</ele>
        <time>2019-09-15T14:25:27Z</time>
      </trkpt>
      <trkpt lat="48.54479" lon="2.59884">
        <ele>79.93</ele>
        <time>2019-09-15T14:25:36Z</time>
      </trkpt>
      <trkpt lat="48.54474" lon="2.59885">
        <ele>78</ele>
        <time>2019-09-15T14:25:52Z</time>
      </trkpt>
      <trkpt lat="48.54474" lon="2.5989">
        <ele>74.64</ele>
        <time>2019-09-15T14:26:17Z</time>
      </trkpt>
      <trkpt lat="48.54472" lon="2.59888">
        <ele>76.08</ele>
        <time>2019-09-15T14:26:41Z</time>
      </trkpt>
      <trkpt lat="48.54471" lon="2.59889">
        <ele>74.64</ele>
        <time>2019-09-15T14:26:57Z</time>
      </trkpt>
      <trkpt lat="48.54472" lon="2.5989">
        <ele>74.16</ele>
        <time>2019-09-15T14:27:14Z</time>
      </trkpt>
      <trkpt lat="48.54473" lon="2.59892">
        <ele>74.64</ele>
        <time>2019-09-15T14:27:41Z</time>
      </trkpt>
      <trkpt lat="48.54475" lon="2.59893">
        <ele>74.64</ele>
        <time>2019-09-15T14:28:05Z</time>
      </trkpt>
      <trkpt lat="48.54473" lon="2.59892">
        <ele>74.64</ele>
        <time>2019-09-15T14:28:26Z</time>
      </trkpt>
      <trkpt lat="48.5447" lon="2.59892">
        <ele>75.6</ele>
        <time>2019-09-15T14:29:01Z</time>
      </trkpt>
      <trkpt lat="48.54469" lon="2.59891">
        <ele>75.6</ele>
        <time>2019-09-15T14:29:25Z</time>
      </trkpt>
      <trkpt lat="48.54469" lon="2.59891">
        <ele>75.12</ele>
        <time>2019-09-15T14:29:50Z</time>
      </trkpt>
      <trkpt lat="48.54469" lon="2.59894">
        <ele>74.64</ele>
        <time>2019-09-15T14:30:00Z</time>
      </trkpt>
      <trkpt lat="48.54467" lon="2.59905">
        <ele>73.2</ele>
        <time>2019-09-15T14:30:05Z</time>
      </trkpt>
      <trkpt lat="48.54465" lon="2.59917">
        <ele>71.27</ele>
        <time>2019-09-15T14:30:09Z</time>
      </trkpt>
      <trkpt lat="48.54456" lon="2.59965">
        <ele>66.47</ele>
        <time>2019-09-15T14:30:20Z</time>
      </trkpt>
      <trkpt lat="48.54452" lon="2.60002">
        <ele>64.55</ele>
        <time>2019-09-15T14:30:27Z</time>
      </trkpt>
      <trkpt lat="48.54464" lon="2.60058">
        <ele>65.03</ele>
        <time>2019-09-15T14:30:37Z</time>
      </trkpt>
      <trkpt lat="48.54475" lon="2.60073">
        <ele>65.03</ele>
        <time>2019-09-15T14:30:41Z</time>
      </trkpt>
      <trkpt lat="48.54508" lon="2.601">
        <ele>63.58</ele>
        <time>2019-09-15T14:30:51Z</time>
      </trkpt>
      <trkpt lat="48.54557" lon="2.60138">
        <ele>63.58</ele>
        <time>2019-09-15T14:31:04Z</time>
      </trkpt>
      <trkpt lat="48.54607" lon="2.60185">
        <ele>62.62</ele>
        <time>2019-09-15T14:31:17Z</time>
      </trkpt>
      <trkpt lat="48.54634" lon="2.60207">
        <ele>62.62</ele>
        <time>2019-09-15T14:31:24Z</time>
      </trkpt>
      <trkpt lat="48.54642" lon="2.60215">
        <ele>63.1</ele>
        <time>2019-09-15T14:31:26Z</time>
      </trkpt>
      <trkpt lat="48.54685" lon="2.60248">
        <ele>67.43</ele>
        <time>2019-09-15T14:31:35Z</time>
      </trkpt>
      <trkpt lat="48.54693" lon="2.60255">
        <ele>67.91</ele>
        <time>2019-09-15T14:31:37Z</time>
      </trkpt>
      <trkpt lat="48.5473" lon="2.60282">
        <ele>69.35</ele>
        <time>2019-09-15T14:31:45Z</time>
      </trkpt>
      <trkpt lat="48.54754" lon="2.60303">
        <ele>70.31</ele>
        <time>2019-09-15T14:31:51Z</time>
      </trkpt>
      <trkpt lat="48.54788" lon="2.60333">
        <ele>72.24</ele>
        <time>2019-09-15T14:31:59Z</time>
      </trkpt>
      <trkpt lat="48.54815" lon="2.60355">
        <ele>69.83</ele>
        <time>2019-09-15T14:32:05Z</time>
      </trkpt>
      <trkpt lat="48.54832" lon="2.60371">
        <ele>69.83</ele>
        <time>2019-09-15T14:32:09Z</time>
      </trkpt>
      <trkpt lat="48.5486" lon="2.60395">
        <ele>69.35</ele>
        <time>2019-09-15T14:32:15Z</time>
      </trkpt>
      <trkpt lat="48.54914" lon="2.60441">
        <ele>67.91</ele>
        <time>2019-09-15T14:32:27Z</time>
      </trkpt>
      <trkpt lat="48.54952" lon="2.60474">
        <ele>65.03</ele>
        <time>2019-09-15T14:32:35Z</time>
      </trkpt>
      <trkpt lat="48.55015" lon="2.60527">
        <ele>60.7</ele>
        <time>2019-09-15T14:32:48Z</time>
      </trkpt>
      <trkpt lat="48.55041" lon="2.60548">
        <ele>60.7</ele>
        <time>2019-09-15T14:32:53Z</time>
      </trkpt>
      <trkpt lat="48.55066" lon="2.6057">
        <ele>61.18</ele>
        <time>2019-09-15T14:32:58Z</time>
      </trkpt>
      <trkpt lat="48.551" lon="2.60603">
        <ele>62.14</ele>
        <time>2019-09-15T14:33:05Z</time>
      </trkpt>
      <trkpt lat="48.55109" lon="2.60611">
        <ele>62.62</ele>
        <time>2019-09-15T14:33:07Z</time>
      </trkpt>
      <trkpt lat="48.55122" lon="2.60626">
        <ele>63.58</ele>
        <time>2019-09-15T14:33:10Z</time>
      </trkpt>
      <trkpt lat="48.55135" lon="2.6065">
        <ele>65.51</ele>
        <time>2019-09-15T14:33:14Z</time>
      </trkpt>
      <trkpt lat="48.55175" lon="2.60704">
        <ele>70.79</ele>
        <time>2019-09-15T14:33:28Z</time>
      </trkpt>
      <trkpt lat="48.55188" lon="2.60726">
        <ele>72.72</ele>
        <time>2019-09-15T14:33:34Z</time>
      </trkpt>
      <trkpt lat="48.55211" lon="2.60764">
        <ele>76.08</ele>
        <time>2019-09-15T14:33:43Z</time>
      </trkpt>
      <trkpt lat="48.55249" lon="2.60785">
        <ele>74.64</ele>
        <time>2019-09-15T14:33:51Z</time>
      </trkpt>
      <trkpt lat="48.55258" lon="2.60802">
        <ele>74.16</ele>
        <time>2019-09-15T14:33:55Z</time>
      </trkpt>
      <trkpt lat="48.55271" lon="2.60817">
        <ele>74.16</ele>
        <time>2019-09-15T14:33:59Z</time>
      </trkpt>
      <trkpt lat="48.55291" lon="2.60827">
        <ele>73.68</ele>
        <time>2019-09-15T14:34:03Z</time>
      </trkpt>
      <trkpt lat="48.55333" lon="2.60844">
        <ele>74.64</ele>
        <time>2019-09-15T14:34:12Z</time>
      </trkpt>
      <trkpt lat="48.55354" lon="2.60855">
        <ele>76.08</ele>
        <time>2019-09-15T14:34:17Z</time>
      </trkpt>
      <trkpt lat="48.55353" lon="2.60894">
        <ele>77.52</ele>
        <time>2019-09-15T14:34:25Z</time>
      </trkpt>
      <trkpt lat="48.55346" lon="2.60952">
        <ele>75.6</ele>
        <time>2019-09-15T14:34:34Z</time>
      </trkpt>
      <trkpt lat="48.55336" lon="2.61023">
        <ele>72.24</ele>
        <time>2019-09-15T14:34:46Z</time>
      </trkpt>
      <trkpt lat="48.55353" lon="2.61071">
        <ele>68.39</ele>
        <time>2019-09-15T14:34:55Z</time>
      </trkpt>
      <trkpt lat="48.55407" lon="2.61122">
        <ele>62.62</ele>
        <time>2019-09-15T14:35:08Z</time>
      </trkpt>
      <trkpt lat="48.55452" lon="2.61137">
        <ele>57.34</ele>
        <time>2019-09-15T14:35:17Z</time>
      </trkpt>
      <trkpt lat="48.55469" lon="2.61142">
        <ele>55.89</ele>
        <time>2019-09-15T14:35:20Z</time>
      </trkpt>
      <trkpt lat="48.5548" lon="2.61146">
        <ele>55.89</ele>
        <time>2019-09-15T14:35:22Z</time>
      </trkpt>
      <trkpt lat="48.55496" lon="2.61147">
        <ele>54.93</ele>
        <time>2019-09-15T14:35:25Z</time>
      </trkpt>
      <trkpt lat="48.55552" lon="2.6115">
        <ele>50.61</ele>
        <time>2019-09-15T14:35:37Z</time>
      </trkpt>
      <trkpt lat="48.55557" lon="2.61151">
        <ele>50.61</ele>
        <time>2019-09-15T14:35:38Z</time>
      </trkpt>
      <trkpt lat="48.55581" lon="2.61163">
        <ele>50.13</ele>
        <time>2019-09-15T14:35:44Z</time>
      </trkpt>
      <trkpt lat="48.55586" lon="2.61182">
        <ele>50.61</ele>
        <time>2019-09-15T14:35:48Z</time>
      </trkpt>
      <trkpt lat="48.55584" lon="2.61239">
        <ele>50.61</ele>
        <time>2019-09-15T14:35:56Z</time>
      </trkpt>
      <trkpt lat="48.55581" lon="2.61274">
        <ele>52.53</ele>
        <time>2019-09-15T14:36:01Z</time>
      </trkpt>
      <trkpt lat="48.55562" lon="2.61302">
        <ele>51.09</ele>
        <time>2019-09-15T14:36:10Z</time>
      </trkpt>
      <trkpt lat="48.55541" lon="2.61307">
        <ele>49.65</ele>
        <time>2019-09-15T14:36:15Z</time>
      </trkpt>
      <trkpt lat="48.55503" lon="2.61303">
        <ele>44.84</ele>
        <time>2019-09-15T14:36:23Z</time>
      </trkpt>
      <trkpt lat="48.55451" lon="2.61297">
        <ele>38.11</ele>
        <time>2019-09-15T14:36:33Z</time>
      </trkpt>
      <trkpt lat="48.55392" lon="2.61289">
        <ele>29.46</ele>
        <time>2019-09-15T14:36:44Z</time>
      </trkpt>
      <trkpt lat="48.55331" lon="2.61289">
        <ele>24.65</ele>
        <time>2019-09-15T14:36:55Z</time>
      </trkpt>
      <trkpt lat="48.55327" lon="2.6129">
        <ele>24.65</ele>
        <time>2019-09-15T14:36:56Z</time>
      </trkpt>
      <trkpt lat="48.5531" lon="2.61337">
        <ele>24.17</ele>
        <time>2019-09-15T14:37:05Z</time>
      </trkpt>
      <trkpt lat="48.553" lon="2.61368">
        <ele>29.46</ele>
        <time>2019-09-15T14:37:09Z</time>
      </trkpt>
      <trkpt lat="48.5529" lon="2.61401">
        <ele>37.63</ele>
        <time>2019-09-15T14:37:13Z</time>
      </trkpt>
      <trkpt lat="48.55278" lon="2.61455">
        <ele>38.59</ele>
        <time>2019-09-15T14:37:23Z</time>
      </trkpt>
      <trkpt lat="48.55258" lon="2.6147">
        <ele>33.78</ele>
        <time>2019-09-15T14:37:30Z</time>
      </trkpt>
      <trkpt lat="48.55237" lon="2.61492">
        <ele>31.86</ele>
        <time>2019-09-15T14:37:37Z</time>
      </trkpt>
      <trkpt lat="48.55227" lon="2.61561">
        <ele>30.42</ele>
        <time>2019-09-15T14:37:48Z</time>
      </trkpt>
      <trkpt lat="48.55213" lon="2.6166">
        <ele>35.23</ele>
        <time>2019-09-15T14:38:02Z</time>
      </trkpt>
      <trkpt lat="48.55206" lon="2.61708">
        <ele>38.59</ele>
        <time>2019-09-15T14:38:14Z</time>
      </trkpt>
      <trkpt lat="48.55174" lon="2.61762">
        <ele>34.74</ele>
        <time>2019-09-15T14:38:28Z</time>
      </trkpt>
      <trkpt lat="48.55172" lon="2.61765">
        <ele>34.26</ele>
        <time>2019-09-15T14:38:29Z</time>
      </trkpt>
      <trkpt lat="48.55161" lon="2.61771">
        <ele>37.63</ele>
        <time>2019-09-15T14:38:34Z</time>
      </trkpt>
      <trkpt lat="48.55148" lon="2.61721">
        <ele>40.99</ele>
        <time>2019-09-15T14:38:44Z</time>
      </trkpt>
      <trkpt lat="48.55148" lon="2.61691">
        <ele>41.95</ele>
        <time>2019-09-15T14:38:48Z</time>
      </trkpt>
      <trkpt lat="48.55146" lon="2.61668">
        <ele>41.95</ele>
        <time>2019-09-15T14:38:51Z</time>
      </trkpt>
      <trkpt lat="48.55138" lon="2.61635">
        <ele>42.44</ele>
        <time>2019-09-15T14:38:55Z</time>
      </trkpt>
      <trkpt lat="48.55136" lon="2.61588">
        <ele>42.92</ele>
        <time>2019-09-15T14:39:00Z</time>
      </trkpt>
      <trkpt lat="48.55143" lon="2.61561">
        <ele>42.92</ele>
        <time>2019-09-15T14:39:03Z</time>
      </trkpt>
      <trkpt lat="48.55147" lon="2.61525">
        <ele>42.92</ele>
        <time>2019-09-15T14:39:07Z</time>
      </trkpt>
      <trkpt lat="48.5515" lon="2.61487">
        <ele>42.92</ele>
        <time>2019-09-15T14:39:11Z</time>
      </trkpt>
      <trkpt lat="48.55147" lon="2.6142">
        <ele>43.4</ele>
        <time>2019-09-15T14:39:19Z</time>
      </trkpt>
      <trkpt lat="48.55139" lon="2.61383">
        <ele>44.36</ele>
        <time>2019-09-15T14:39:24Z</time>
      </trkpt>
      <trkpt lat="48.55122" lon="2.61353">
        <ele>46.28</ele>
        <time>2019-09-15T14:39:29Z</time>
      </trkpt>
      <trkpt lat="48.55115" lon="2.6134">
        <ele>46.76</ele>
        <time>2019-09-15T14:39:31Z</time>
      </trkpt>
      <trkpt lat="48.55095" lon="2.61318">
        <ele>48.2</ele>
        <time>2019-09-15T14:39:35Z</time>
      </trkpt>
      <trkpt lat="48.5507" lon="2.61293">
        <ele>49.16</ele>
        <time>2019-09-15T14:39:40Z</time>
      </trkpt>
      <trkpt lat="48.55049" lon="2.61282">
        <ele>51.57</ele>
        <time>2019-09-15T14:39:47Z</time>
      </trkpt>
      <trkpt lat="48.55041" lon="2.61313">
        <ele>50.61</ele>
        <time>2019-09-15T14:39:58Z</time>
      </trkpt>
      <trkpt lat="48.5504" lon="2.61318">
        <ele>52.05</ele>
        <time>2019-09-15T14:40:03Z</time>
      </trkpt>
      <trkpt lat="48.55043" lon="2.61336">
        <ele>52.05</ele>
        <time>2019-09-15T14:40:09Z</time>
      </trkpt>
      <trkpt lat="48.55041" lon="2.61382">
        <ele>52.53</ele>
        <time>2019-09-15T14:40:18Z</time>
      </trkpt>
      <trkpt lat="48.55045" lon="2.61412">
        <ele>53.01</ele>
        <time>2019-09-15T14:40:23Z</time>
      </trkpt>
      <trkpt lat="48.55037" lon="2.61452">
        <ele>51.57</ele>
        <time>2019-09-15T14:40:32Z</time>
      </trkpt>
      <trkpt lat="48.55037" lon="2.61515">
        <ele>49.65</ele>
        <time>2019-09-15T14:40:45Z</time>
      </trkpt>
      <trkpt lat="48.55031" lon="2.61566">
        <ele>47.24</ele>
        <time>2019-09-15T14:40:55Z</time>
      </trkpt>
      <trkpt lat="48.5503" lon="2.61577">
        <ele>46.28</ele>
        <time>2019-09-15T14:40:57Z</time>
      </trkpt>
      <trkpt lat="48.55036" lon="2.61597">
        <ele>46.28</ele>
        <time>2019-09-15T14:41:01Z</time>
      </trkpt>
      <trkpt lat="48.55042" lon="2.61611">
        <ele>44.84</ele>
        <time>2019-09-15T14:41:04Z</time>
      </trkpt>
      <trkpt lat="48.55042" lon="2.61626">
        <ele>43.88</ele>
        <time>2019-09-15T14:41:08Z</time>
      </trkpt>
      <trkpt lat="48.55043" lon="2.61677">
        <ele>38.59</ele>
        <time>2019-09-15T14:41:19Z</time>
      </trkpt>
      <trkpt lat="48.55048" lon="2.61726">
        <ele>37.15</ele>
        <time>2019-09-15T14:41:26Z</time>
      </trkpt>
      <trkpt lat="48.55056" lon="2.61768">
        <ele>40.03</ele>
        <time>2019-09-15T14:41:33Z</time>
      </trkpt>
      <trkpt lat="48.55039" lon="2.6182">
        <ele>45.32</ele>
        <time>2019-09-15T14:41:43Z</time>
      </trkpt>
      <trkpt lat="48.55038" lon="2.61845">
        <ele>42.44</ele>
        <time>2019-09-15T14:41:49Z</time>
      </trkpt>
      <trkpt lat="48.55031" lon="2.61923">
        <ele>42.92</ele>
        <time>2019-09-15T14:42:01Z</time>
      </trkpt>
      <trkpt lat="48.55048" lon="2.62002">
        <ele>42.92</ele>
        <time>2019-09-15T14:42:12Z</time>
      </trkpt>
      <trkpt lat="48.55061" lon="2.62006">
        <ele>40.03</ele>
        <time>2019-09-15T14:42:16Z</time>
      </trkpt>
      <trkpt lat="48.55129" lon="2.6201">
        <ele>31.38</ele>
        <time>2019-09-15T14:42:31Z</time>
      </trkpt>
      <trkpt lat="48.55196" lon="2.62017">
        <ele>32.34</ele>
        <time>2019-09-15T14:42:45Z</time>
      </trkpt>
      <trkpt lat="48.55254" lon="2.62017">
        <ele>32.82</ele>
        <time>2019-09-15T14:42:57Z</time>
      </trkpt>
      <trkpt lat="48.55325" lon="2.62025">
        <ele>28.98</ele>
        <time>2019-09-15T14:43:10Z</time>
      </trkpt>
      <trkpt lat="48.55341" lon="2.62024">
        <ele>28.02</ele>
        <time>2019-09-15T14:43:13Z</time>
      </trkpt>
      <trkpt lat="48.5541" lon="2.62029">
        <ele>25.61</ele>
        <time>2019-09-15T14:43:26Z</time>
      </trkpt>
      <trkpt lat="48.55465" lon="2.62029">
        <ele>26.57</ele>
        <time>2019-09-15T14:43:39Z</time>
      </trkpt>
      <trkpt lat="48.55468" lon="2.62025">
        <ele>30.9</ele>
        <time>2019-09-15T14:43:42Z</time>
      </trkpt>
      <trkpt lat="48.55472" lon="2.62005">
        <ele>36.67</ele>
        <time>2019-09-15T14:43:47Z</time>
      </trkpt>
      <trkpt lat="48.55486" lon="2.61929">
        <ele>40.51</ele>
        <time>2019-09-15T14:43:59Z</time>
      </trkpt>
      <trkpt lat="48.55489" lon="2.61908">
        <ele>39.07</ele>
        <time>2019-09-15T14:44:02Z</time>
      </trkpt>
      <trkpt lat="48.55498" lon="2.61868">
        <ele>39.07</ele>
        <time>2019-09-15T14:44:08Z</time>
      </trkpt>
      <trkpt lat="48.55519" lon="2.61816">
        <ele>44.36</ele>
        <time>2019-09-15T14:44:18Z</time>
      </trkpt>
      <trkpt lat="48.55527" lon="2.61763">
        <ele>44.84</ele>
        <time>2019-09-15T14:44:27Z</time>
      </trkpt>
      <trkpt lat="48.55536" lon="2.61694">
        <ele>43.4</ele>
        <time>2019-09-15T14:44:36Z</time>
      </trkpt>
      <trkpt lat="48.55538" lon="2.61668">
        <ele>43.88</ele>
        <time>2019-09-15T14:44:40Z</time>
      </trkpt>
      <trkpt lat="48.55548" lon="2.61665">
        <ele>43.88</ele>
        <time>2019-09-15T14:44:44Z</time>
      </trkpt>
      <trkpt lat="48.55564" lon="2.61698">
        <ele>44.84</ele>
        <time>2019-09-15T14:44:51Z</time>
      </trkpt>
      <trkpt lat="48.55576" lon="2.61735">
        <ele>46.76</ele>
        <time>2019-09-15T14:44:58Z</time>
      </trkpt>
      <trkpt lat="48.55618" lon="2.61747">
        <ele>44.84</ele>
        <time>2019-09-15T14:45:09Z</time>
      </trkpt>
      <trkpt lat="48.55659" lon="2.61736">
        <ele>41.95</ele>
        <time>2019-09-15T14:45:18Z</time>
      </trkpt>
      <trkpt lat="48.55665" lon="2.61735">
        <ele>41.47</ele>
        <time>2019-09-15T14:45:19Z</time>
      </trkpt>
      <trkpt lat="48.55689" lon="2.61712">
        <ele>39.07</ele>
        <time>2019-09-15T14:45:25Z</time>
      </trkpt>
      <trkpt lat="48.55699" lon="2.61664">
        <ele>39.07</ele>
        <time>2019-09-15T14:45:31Z</time>
      </trkpt>
      <trkpt lat="48.55714" lon="2.61584">
        <ele>42.44</ele>
        <time>2019-09-15T14:45:41Z</time>
      </trkpt>
      <trkpt lat="48.55733" lon="2.6156">
        <ele>44.36</ele>
        <time>2019-09-15T14:45:47Z</time>
      </trkpt>
      <trkpt lat="48.55754" lon="2.61565">
        <ele>44.36</ele>
        <time>2019-09-15T14:45:51Z</time>
      </trkpt>
      <trkpt lat="48.55774" lon="2.61564">
        <ele>44.36</ele>
        <time>2019-09-15T14:45:55Z</time>
      </trkpt>
      <trkpt lat="48.55789" lon="2.61547">
        <ele>43.4</ele>
        <time>2019-09-15T14:45:59Z</time>
      </trkpt>
      <trkpt lat="48.55797" lon="2.61511">
        <ele>41.95</ele>
        <time>2019-09-15T14:46:04Z</time>
      </trkpt>
      <trkpt lat="48.55799" lon="2.61477">
        <ele>43.88</ele>
        <time>2019-09-15T14:46:08Z</time>
      </trkpt>
      <trkpt lat="48.55804" lon="2.61448">
        <ele>44.36</ele>
        <time>2019-09-15T14:46:12Z</time>
      </trkpt>
      <trkpt lat="48.55811" lon="2.61396">
        <ele>43.88</ele>
        <time>2019-09-15T14:46:20Z</time>
      </trkpt>
      <trkpt lat="48.55811" lon="2.61375">
        <ele>45.32</ele>
        <time>2019-09-15T14:46:23Z</time>
      </trkpt>
      <trkpt lat="48.55823" lon="2.61316">
        <ele>45.32</ele>
        <time>2019-09-15T14:46:33Z</time>
      </trkpt>
      <trkpt lat="48.55844" lon="2.61325">
        <ele>46.76</ele>
        <time>2019-09-15T14:46:39Z</time>
      </trkpt>
      <trkpt lat="48.55875" lon="2.61371">
        <ele>51.57</ele>
        <time>2019-09-15T14:46:49Z</time>
      </trkpt>
      <trkpt lat="48.55898" lon="2.61409">
        <ele>54.93</ele>
        <time>2019-09-15T14:46:59Z</time>
      </trkpt>
      <trkpt lat="48.55918" lon="2.61475">
        <ele>58.3</ele>
        <time>2019-09-15T14:47:11Z</time>
      </trkpt>
      <trkpt lat="48.55931" lon="2.61525">
        <ele>60.7</ele>
        <time>2019-09-15T14:47:20Z</time>
      </trkpt>
      <trkpt lat="48.55943" lon="2.61544">
        <ele>63.58</ele>
        <time>2019-09-15T14:47:24Z</time>
      </trkpt>
      <trkpt lat="48.55974" lon="2.61549">
        <ele>67.43</ele>
        <time>2019-09-15T14:47:33Z</time>
      </trkpt>
      <trkpt lat="48.55979" lon="2.61572">
        <ele>68.87</ele>
        <time>2019-09-15T14:47:37Z</time>
      </trkpt>
      <trkpt lat="48.55979" lon="2.61614">
        <ele>71.27</ele>
        <time>2019-09-15T14:47:43Z</time>
      </trkpt>
      <trkpt lat="48.55974" lon="2.61665">
        <ele>74.16</ele>
        <time>2019-09-15T14:47:51Z</time>
      </trkpt>
      <trkpt lat="48.56005" lon="2.61732">
        <ele>76.08</ele>
        <time>2019-09-15T14:48:03Z</time>
      </trkpt>
      <trkpt lat="48.5602" lon="2.61774">
        <ele>78</ele>
        <time>2019-09-15T14:48:11Z</time>
      </trkpt>
      <trkpt lat="48.56033" lon="2.61799">
        <ele>78.48</ele>
        <time>2019-09-15T14:48:15Z</time>
      </trkpt>
      <trkpt lat="48.5605" lon="2.61849">
        <ele>79.45</ele>
        <time>2019-09-15T14:48:22Z</time>
      </trkpt>
      <trkpt lat="48.56056" lon="2.61862">
        <ele>79.93</ele>
        <time>2019-09-15T14:48:24Z</time>
      </trkpt>
      <trkpt lat="48.56062" lon="2.61876">
        <ele>79.93</ele>
        <time>2019-09-15T14:48:26Z</time>
      </trkpt>
      <trkpt lat="48.56058" lon="2.61928">
        <ele>80.89</ele>
        <time>2019-09-15T14:48:34Z</time>
      </trkpt>
      <trkpt lat="48.56047" lon="2.61964">
        <ele>81.37</ele>
        <time>2019-09-15T14:48:39Z</time>
      </trkpt>
      <trkpt lat="48.56022" lon="2.62059">
        <ele>85.21</ele>
        <time>2019-09-15T14:48:52Z</time>
      </trkpt>
      <trkpt lat="48.56011" lon="2.62103">
        <ele>86.66</ele>
        <time>2019-09-15T14:48:58Z</time>
      </trkpt>
      <trkpt lat="48.55996" lon="2.62168">
        <ele>88.1</ele>
        <time>2019-09-15T14:49:07Z</time>
      </trkpt>
      <trkpt lat="48.55989" lon="2.62197">
        <ele>89.06</ele>
        <time>2019-09-15T14:49:11Z</time>
      </trkpt>
      <trkpt lat="48.55971" lon="2.62251">
        <ele>90.98</ele>
        <time>2019-09-15T14:49:18Z</time>
      </trkpt>
      <trkpt lat="48.55944" lon="2.62356">
        <ele>93.87</ele>
        <time>2019-09-15T14:49:32Z</time>
      </trkpt>
      <trkpt lat="48.55924" lon="2.62438">
        <ele>96.75</ele>
        <time>2019-09-15T14:49:46Z</time>
      </trkpt>
      <trkpt lat="48.55916" lon="2.62496">
        <ele>99.63</ele>
        <time>2019-09-15T14:49:58Z</time>
      </trkpt>
      <trkpt lat="48.55896" lon="2.62521">
        <ele>101.56</ele>
        <time>2019-09-15T14:50:11Z</time>
      </trkpt>
      <trkpt lat="48.55869" lon="2.6255">
        <ele>100.11</ele>
        <time>2019-09-15T14:50:25Z</time>
      </trkpt>
      <trkpt lat="48.55855" lon="2.62591">
        <ele>100.11</ele>
        <time>2019-09-15T14:50:38Z</time>
      </trkpt>
      <trkpt lat="48.55853" lon="2.62601">
        <ele>99.63</ele>
        <time>2019-09-15T14:50:41Z</time>
      </trkpt>
      <trkpt lat="48.55854" lon="2.62638">
        <ele>100.6</ele>
        <time>2019-09-15T14:50:56Z</time>
      </trkpt>
      <trkpt lat="48.55834" lon="2.62677">
        <ele>101.56</ele>
        <time>2019-09-15T14:51:10Z</time>
      </trkpt>
      <trkpt lat="48.55821" lon="2.62692">
        <ele>102.52</ele>
        <time>2019-09-15T14:51:16Z</time>
      </trkpt>
      <trkpt lat="48.55824" lon="2.627">
        <ele>103</ele>
        <time>2019-09-15T14:51:20Z</time>
      </trkpt>
      <trkpt lat="48.55815" lon="2.62752">
        <ele>101.56</ele>
        <time>2019-09-15T14:51:32Z</time>
      </trkpt>
      <trkpt lat="48.55813" lon="2.62763">
        <ele>101.08</ele>
        <time>2019-09-15T14:51:34Z</time>
      </trkpt>
      <trkpt lat="48.55803" lon="2.62801">
        <ele>99.63</ele>
        <time>2019-09-15T14:51:38Z</time>
      </trkpt>
      <trkpt lat="48.55792" lon="2.62824">
        <ele>98.67</ele>
        <time>2019-09-15T14:51:40Z</time>
      </trkpt>
      <trkpt lat="48.55769" lon="2.62902">
        <ele>96.27</ele>
        <time>2019-09-15T14:51:48Z</time>
      </trkpt>
      <trkpt lat="48.55766" lon="2.62909">
        <ele>95.31</ele>
        <time>2019-09-15T14:52:00Z</time>
      </trkpt>
      <trkpt lat="48.55764" lon="2.6291">
        <ele>96.27</ele>
        <time>2019-09-15T14:52:14Z</time>
      </trkpt>
      <trkpt lat="48.55766" lon="2.62914">
        <ele>96.75</ele>
        <time>2019-09-15T14:52:28Z</time>
      </trkpt>
      <trkpt lat="48.55768" lon="2.62923">
        <ele>96.27</ele>
        <time>2019-09-15T14:52:35Z</time>
      </trkpt>
      <trkpt lat="48.55789" lon="2.62951">
        <ele>95.31</ele>
        <time>2019-09-15T14:52:46Z</time>
      </trkpt>
      <trkpt lat="48.55797" lon="2.62968">
        <ele>93.39</ele>
        <time>2019-09-15T14:52:54Z</time>
      </trkpt>
      <trkpt lat="48.55823" lon="2.62965">
        <ele>92.42</ele>
        <time>2019-09-15T14:53:04Z</time>
      </trkpt>
      <trkpt lat="48.55832" lon="2.62973">
        <ele>91.46</ele>
        <time>2019-09-15T14:53:08Z</time>
      </trkpt>
      <trkpt lat="48.55853" lon="2.62988">
        <ele>89.54</ele>
        <time>2019-09-15T14:53:14Z</time>
      </trkpt>
      <trkpt lat="48.55876" lon="2.62965">
        <ele>89.06</ele>
        <time>2019-09-15T14:53:20Z</time>
      </trkpt>
      <trkpt lat="48.55916" lon="2.62993">
        <ele>74.16</ele>
        <time>2019-09-15T14:53:34Z</time>
      </trkpt>
      <trkpt lat="48.55923" lon="2.63044">
        <ele>69.83</ele>
        <time>2019-09-15T14:53:40Z</time>
      </trkpt>
      <trkpt lat="48.5593" lon="2.63096">
        <ele>69.35</ele>
        <time>2019-09-15T14:53:46Z</time>
      </trkpt>
      <trkpt lat="48.55928" lon="2.63103">
        <ele>66.95</ele>
        <time>2019-09-15T14:53:52Z</time>
      </trkpt>
      <trkpt lat="48.55956" lon="2.63055">
        <ele>64.55</ele>
        <time>2019-09-15T14:53:59Z</time>
      </trkpt>
      <trkpt lat="48.55966" lon="2.63034">
        <ele>64.55</ele>
        <time>2019-09-15T14:54:02Z</time>
      </trkpt>
      <trkpt lat="48.55977" lon="2.63005">
        <ele>64.07</ele>
        <time>2019-09-15T14:54:06Z</time>
      </trkpt>
      <trkpt lat="48.55993" lon="2.62927">
        <ele>65.03</ele>
        <time>2019-09-15T14:54:17Z</time>
      </trkpt>
      <trkpt lat="48.55989" lon="2.62812">
        <ele>66.95</ele>
        <time>2019-09-15T14:54:32Z</time>
      </trkpt>
      <trkpt lat="48.55989" lon="2.62793">
        <ele>66.95</ele>
        <time>2019-09-15T14:54:35Z</time>
      </trkpt>
      <trkpt lat="48.56005" lon="2.62699">
        <ele>69.35</ele>
        <time>2019-09-15T14:54:48Z</time>
      </trkpt>
      <trkpt lat="48.56006" lon="2.62692">
        <ele>69.35</ele>
        <time>2019-09-15T14:54:49Z</time>
      </trkpt>
      <trkpt lat="48.56023" lon="2.62621">
        <ele>69.35</ele>
        <time>2019-09-15T14:55:00Z</time>
      </trkpt>
      <trkpt lat="48.56028" lon="2.62601">
        <ele>70.31</ele>
        <time>2019-09-15T14:55:03Z</time>
      </trkpt>
      <trkpt lat="48.56041" lon="2.62559">
        <ele>70.31</ele>
        <time>2019-09-15T14:55:09Z</time>
      </trkpt>
      <trkpt lat="48.56046" lon="2.6254">
        <ele>70.31</ele>
        <time>2019-09-15T14:55:12Z</time>
      </trkpt>
      <trkpt lat="48.56088" lon="2.6245">
        <ele>69.83</ele>
        <time>2019-09-15T14:55:27Z</time>
      </trkpt>
      <trkpt lat="48.56136" lon="2.6237">
        <ele>67.91</ele>
        <time>2019-09-15T14:55:40Z</time>
      </trkpt>
      <trkpt lat="48.56187" lon="2.62296">
        <ele>65.51</ele>
        <time>2019-09-15T14:55:53Z</time>
      </trkpt>
      <trkpt lat="48.56207" lon="2.62269">
        <ele>64.55</ele>
        <time>2019-09-15T14:55:59Z</time>
      </trkpt>
      <trkpt lat="48.5622" lon="2.6228">
        <ele>66.47</ele>
        <time>2019-09-15T14:56:05Z</time>
      </trkpt>
      <trkpt lat="48.56224" lon="2.62286">
        <ele>66.95</ele>
        <time>2019-09-15T14:56:07Z</time>
      </trkpt>
      <trkpt lat="48.56236" lon="2.6229">
        <ele>66.95</ele>
        <time>2019-09-15T14:56:12Z</time>
      </trkpt>
      <trkpt lat="48.56252" lon="2.62286">
        <ele>68.39</ele>
        <time>2019-09-15T14:56:17Z</time>
      </trkpt>
      <trkpt lat="48.56264" lon="2.62301">
        <ele>69.83</ele>
        <time>2019-09-15T14:56:21Z</time>
      </trkpt>
      <trkpt lat="48.56292" lon="2.62355">
        <ele>70.79</ele>
        <time>2019-09-15T14:56:32Z</time>
      </trkpt>
      <trkpt lat="48.56292" lon="2.62372">
        <ele>70.79</ele>
        <time>2019-09-15T14:56:35Z</time>
      </trkpt>
      <trkpt lat="48.56297" lon="2.62403">
        <ele>69.83</ele>
        <time>2019-09-15T14:56:40Z</time>
      </trkpt>
      <trkpt lat="48.56349" lon="2.62402">
        <ele>70.31</ele>
        <time>2019-09-15T14:56:50Z</time>
      </trkpt>
      <trkpt lat="48.5635" lon="2.62374">
        <ele>71.27</ele>
        <time>2019-09-15T14:56:53Z</time>
      </trkpt>
      <trkpt lat="48.56343" lon="2.62347">
        <ele>70.79</ele>
        <time>2019-09-15T14:56:56Z</time>
      </trkpt>
      <trkpt lat="48.56338" lon="2.62329">
        <ele>69.83</ele>
        <time>2019-09-15T14:56:58Z</time>
      </trkpt>
      <trkpt lat="48.56335" lon="2.62295">
        <ele>69.83</ele>
        <time>2019-09-15T14:57:02Z</time>
      </trkpt>
      <trkpt lat="48.56333" lon="2.62232">
        <ele>69.83</ele>
        <time>2019-09-15T14:57:11Z</time>
      </trkpt>
      <trkpt lat="48.56337" lon="2.62197">
        <ele>69.83</ele>
        <time>2019-09-15T14:57:16Z</time>
      </trkpt>
      <trkpt lat="48.56339" lon="2.62163">
        <ele>70.31</ele>
        <time>2019-09-15T14:57:26Z</time>
      </trkpt>
      <trkpt lat="48.56339" lon="2.62159">
        <ele>69.83</ele>
        <time>2019-09-15T14:57:29Z</time>
      </trkpt>
      <trkpt lat="48.56335" lon="2.62124">
        <ele>71.76</ele>
        <time>2019-09-15T14:57:40Z</time>
      </trkpt>
      <trkpt lat="48.56345" lon="2.62079">
        <ele>72.24</ele>
        <time>2019-09-15T14:57:51Z</time>
      </trkpt>
      <trkpt lat="48.56352" lon="2.62027">
        <ele>72.72</ele>
        <time>2019-09-15T14:58:04Z</time>
      </trkpt>
      <trkpt lat="48.5635" lon="2.62007">
        <ele>72.72</ele>
        <time>2019-09-15T14:58:07Z</time>
      </trkpt>
      <trkpt lat="48.56373" lon="2.61933">
        <ele>72.24</ele>
        <time>2019-09-15T14:58:18Z</time>
      </trkpt>
      <trkpt lat="48.56379" lon="2.61913">
        <ele>71.76</ele>
        <time>2019-09-15T14:58:21Z</time>
      </trkpt>
      <trkpt lat="48.56385" lon="2.61895">
        <ele>70.79</ele>
        <time>2019-09-15T14:58:24Z</time>
      </trkpt>
      <trkpt lat="48.56388" lon="2.61852">
        <ele>70.79</ele>
        <time>2019-09-15T14:58:30Z</time>
      </trkpt>
      <trkpt lat="48.56399" lon="2.61824">
        <ele>73.68</ele>
        <time>2019-09-15T14:58:35Z</time>
      </trkpt>
      <trkpt lat="48.56409" lon="2.61798">
        <ele>75.12</ele>
        <time>2019-09-15T14:58:39Z</time>
      </trkpt>
      <trkpt lat="48.56414" lon="2.61771">
        <ele>76.56</ele>
        <time>2019-09-15T14:58:43Z</time>
      </trkpt>
      <trkpt lat="48.56416" lon="2.61741">
        <ele>77.52</ele>
        <time>2019-09-15T14:58:47Z</time>
      </trkpt>
      <trkpt lat="48.56426" lon="2.61645">
        <ele>80.89</ele>
        <time>2019-09-15T14:59:00Z</time>
      </trkpt>
      <trkpt lat="48.56432" lon="2.61599">
        <ele>82.33</ele>
        <time>2019-09-15T14:59:06Z</time>
      </trkpt>
      <trkpt lat="48.5646" lon="2.61566">
        <ele>86.18</ele>
        <time>2019-09-15T14:59:14Z</time>
      </trkpt>
      <trkpt lat="48.56482" lon="2.61561">
        <ele>88.1</ele>
        <time>2019-09-15T14:59:18Z</time>
      </trkpt>
      <trkpt lat="48.56507" lon="2.6156">
        <ele>87.62</ele>
        <time>2019-09-15T14:59:23Z</time>
      </trkpt>
      <trkpt lat="48.5654" lon="2.61546">
        <ele>87.14</ele>
        <time>2019-09-15T14:59:31Z</time>
      </trkpt>
      <trkpt lat="48.56541" lon="2.61498">
        <ele>84.73</ele>
        <time>2019-09-15T14:59:38Z</time>
      </trkpt>
      <trkpt lat="48.56537" lon="2.6146">
        <ele>83.29</ele>
        <time>2019-09-15T14:59:43Z</time>
      </trkpt>
      <trkpt lat="48.56537" lon="2.61443">
        <ele>82.81</ele>
        <time>2019-09-15T14:59:45Z</time>
      </trkpt>
      <trkpt lat="48.56535" lon="2.61411">
        <ele>81.37</ele>
        <time>2019-09-15T14:59:49Z</time>
      </trkpt>
      <trkpt lat="48.56526" lon="2.61383">
        <ele>80.41</ele>
        <time>2019-09-15T14:59:53Z</time>
      </trkpt>
      <trkpt lat="48.5651" lon="2.61349">
        <ele>79.93</ele>
        <time>2019-09-15T14:59:58Z</time>
      </trkpt>
      <trkpt lat="48.56509" lon="2.61294">
        <ele>80.89</ele>
        <time>2019-09-15T15:00:07Z</time>
      </trkpt>
      <trkpt lat="48.56515" lon="2.61292">
        <ele>81.37</ele>
        <time>2019-09-15T15:00:08Z</time>
      </trkpt>
      <trkpt lat="48.56605" lon="2.613">
        <ele>87.14</ele>
        <time>2019-09-15T15:00:22Z</time>
      </trkpt>
      <trkpt lat="48.56631" lon="2.61308">
        <ele>87.14</ele>
        <time>2019-09-15T15:00:26Z</time>
      </trkpt>
      <trkpt lat="48.56678" lon="2.6132">
        <ele>86.18</ele>
        <time>2019-09-15T15:00:34Z</time>
      </trkpt>
      <trkpt lat="48.56765" lon="2.61332">
        <ele>86.66</ele>
        <time>2019-09-15T15:00:50Z</time>
      </trkpt>
      <trkpt lat="48.56821" lon="2.61333">
        <ele>85.69</ele>
        <time>2019-09-15T15:01:03Z</time>
      </trkpt>
      <trkpt lat="48.56836" lon="2.61331">
        <ele>86.66</ele>
        <time>2019-09-15T15:01:07Z</time>
      </trkpt>
      <trkpt lat="48.56898" lon="2.61341">
        <ele>87.14</ele>
        <time>2019-09-15T15:01:22Z</time>
      </trkpt>
      <trkpt lat="48.56912" lon="2.6134">
        <ele>87.14</ele>
        <time>2019-09-15T15:01:26Z</time>
      </trkpt>
      <trkpt lat="48.56958" lon="2.61334">
        <ele>88.1</ele>
        <time>2019-09-15T15:01:37Z</time>
      </trkpt>
      <trkpt lat="48.56971" lon="2.61329">
        <ele>88.58</ele>
        <time>2019-09-15T15:01:40Z</time>
      </trkpt>
      <trkpt lat="48.57031" lon="2.61303">
        <ele>88.58</ele>
        <time>2019-09-15T15:01:53Z</time>
      </trkpt>
      <trkpt lat="48.5709" lon="2.61281">
        <ele>87.62</ele>
        <time>2019-09-15T15:02:06Z</time>
      </trkpt>
      <trkpt lat="48.57104" lon="2.61276">
        <ele>87.14</ele>
        <time>2019-09-15T15:02:09Z</time>
      </trkpt>
      <trkpt lat="48.57117" lon="2.61273">
        <ele>87.62</ele>
        <time>2019-09-15T15:02:12Z</time>
      </trkpt>
      <trkpt lat="48.57134" lon="2.61259">
        <ele>88.58</ele>
        <time>2019-09-15T15:02:16Z</time>
      </trkpt>
      <trkpt lat="48.57186" lon="2.61252">
        <ele>90.02</ele>
        <time>2019-09-15T15:02:28Z</time>
      </trkpt>
      <trkpt lat="48.57198" lon="2.61258">
        <ele>90.02</ele>
        <time>2019-09-15T15:02:32Z</time>
      </trkpt>
      <trkpt lat="48.57204" lon="2.61245">
        <ele>89.06</ele>
        <time>2019-09-15T15:02:37Z</time>
      </trkpt>
      <trkpt lat="48.57246" lon="2.61229">
        <ele>87.14</ele>
        <time>2019-09-15T15:02:48Z</time>
      </trkpt>
      <trkpt lat="48.57272" lon="2.61228">
        <ele>85.69</ele>
        <time>2019-09-15T15:02:53Z</time>
      </trkpt>
      <trkpt lat="48.57282" lon="2.61232">
        <ele>84.73</ele>
        <time>2019-09-15T15:02:55Z</time>
      </trkpt>
      <trkpt lat="48.57303" lon="2.61249">
        <ele>82.81</ele>
        <time>2019-09-15T15:03:00Z</time>
      </trkpt>
      <trkpt lat="48.5732" lon="2.61257">
        <ele>81.85</ele>
        <time>2019-09-15T15:03:04Z</time>
      </trkpt>
      <trkpt lat="48.57355" lon="2.61277">
        <ele>78</ele>
        <time>2019-09-15T15:03:15Z</time>
      </trkpt>
      <trkpt lat="48.57369" lon="2.61272">
        <ele>76.08</ele>
        <time>2019-09-15T15:03:19Z</time>
      </trkpt>
      <trkpt lat="48.57381" lon="2.61204">
        <ele>70.79</ele>
        <time>2019-09-15T15:03:32Z</time>
      </trkpt>
      <trkpt lat="48.57388" lon="2.61152">
        <ele>67.91</ele>
        <time>2019-09-15T15:03:42Z</time>
      </trkpt>
      <trkpt lat="48.5738" lon="2.61147">
        <ele>69.83</ele>
        <time>2019-09-15T15:03:49Z</time>
      </trkpt>
      <trkpt lat="48.57356" lon="2.61141">
        <ele>71.27</ele>
        <time>2019-09-15T15:03:59Z</time>
      </trkpt>
      <trkpt lat="48.57347" lon="2.61164">
        <ele>72.72</ele>
        <time>2019-09-15T15:04:04Z</time>
      </trkpt>
      <trkpt lat="48.5735" lon="2.61186">
        <ele>73.68</ele>
        <time>2019-09-15T15:04:11Z</time>
      </trkpt>
      <trkpt lat="48.57355" lon="2.61189">
        <ele>74.16</ele>
        <time>2019-09-15T15:04:14Z</time>
      </trkpt>
      <trkpt lat="48.57354" lon="2.61231">
        <ele>74.16</ele>
        <time>2019-09-15T15:04:25Z</time>
      </trkpt>
      <trkpt lat="48.57357" lon="2.61231">
        <ele>74.16</ele>
        <time>2019-09-15T15:04:38Z</time>
      </trkpt>
    </trkseg>
  </trk>
</gpx>